<?xml version="1.0" encoding="UTF-8" standalone="no" ?>
<gpx xmlns="http://www.topografix.com/GPX/1/1" xmlns:xsi="http://www.w3.org/2001/XMLSchema-instance" xsi:schemaLocation="http://www.topografix.com/GPX/1/1 http://www.topografix.com/GPX/1/1/gpx.xsd" version="1.1" creator="VisuGPX - https://www.visugpx.com">
  <metadata>
    <name>balade en forêt de la Serre</name>
    <desc><![CDATA[balade assez longue mais facile, essentiellement en forêt, avec ses croix pattées, sa grotte de l\'ermitage, son sentier botanique et le château de Moissey.]]></desc>
  </metadata>
  <trk>
    <name><![CDATA[TracA- actuel- 23 SEP 2014 09-43-MNT]]></name>
    <trkseg>
      <trkpt lat="47.20467" lon="5.61698">
        <ele>269.551239</ele>
        <time>2014-09-23T08:43:42Z</time>
      </trkpt>
      <trkpt lat="47.20468" lon="5.61687">
        <ele>269.359985</ele>
        <time>2014-09-23T08:44:02Z</time>
      </trkpt>
      <trkpt lat="47.2047" lon="5.61686">
        <ele>269.30249</ele>
        <time>2014-09-23T08:44:22Z</time>
      </trkpt>
      <trkpt lat="47.20465" lon="5.61661">
        <ele>269.115936</ele>
        <time>2014-09-23T08:44:42Z</time>
      </trkpt>
      <trkpt lat="47.2045" lon="5.61642">
        <ele>269.301392</ele>
        <time>2014-09-23T08:45:02Z</time>
      </trkpt>
      <trkpt lat="47.2044" lon="5.61616">
        <ele>269.192139</ele>
        <time>2014-09-23T08:45:22Z</time>
      </trkpt>
      <trkpt lat="47.20428" lon="5.61588">
        <ele>269.619232</ele>
        <time>2014-09-23T08:45:42Z</time>
      </trkpt>
      <trkpt lat="47.20414" lon="5.61557">
        <ele>271.338165</ele>
        <time>2014-09-23T08:46:02Z</time>
      </trkpt>
      <trkpt lat="47.20409" lon="5.61526">
        <ele>272.945007</ele>
        <time>2014-09-23T08:46:22Z</time>
      </trkpt>
      <trkpt lat="47.20419" lon="5.61497">
        <ele>275.880005</ele>
        <time>2014-09-23T08:46:42Z</time>
      </trkpt>
      <trkpt lat="47.20413" lon="5.61466">
        <ele>278.497498</ele>
        <time>2014-09-23T08:47:02Z</time>
      </trkpt>
      <trkpt lat="47.204" lon="5.61441">
        <ele>279.833374</ele>
        <time>2014-09-23T08:47:22Z</time>
      </trkpt>
      <trkpt lat="47.20391" lon="5.61414">
        <ele>281.163177</ele>
        <time>2014-09-23T08:47:42Z</time>
      </trkpt>
      <trkpt lat="47.20403" lon="5.61389">
        <ele>283.848511</ele>
        <time>2014-09-23T08:48:02Z</time>
      </trkpt>
      <trkpt lat="47.20408" lon="5.6136">
        <ele>287.219696</ele>
        <time>2014-09-23T08:48:22Z</time>
      </trkpt>
      <trkpt lat="47.20403" lon="5.61335">
        <ele>289.072052</ele>
        <time>2014-09-23T08:48:42Z</time>
      </trkpt>
      <trkpt lat="47.20403" lon="5.61313">
        <ele>291.939087</ele>
        <time>2014-09-23T08:49:02Z</time>
      </trkpt>
      <trkpt lat="47.204" lon="5.61293">
        <ele>294.462494</ele>
        <time>2014-09-23T08:49:22Z</time>
      </trkpt>
      <trkpt lat="47.20399" lon="5.61272">
        <ele>297.076508</ele>
        <time>2014-09-23T08:49:42Z</time>
      </trkpt>
      <trkpt lat="47.20395" lon="5.61254">
        <ele>299.353668</ele>
        <time>2014-09-23T08:50:02Z</time>
      </trkpt>
      <trkpt lat="47.20385" lon="5.61235">
        <ele>300.660217</ele>
        <time>2014-09-23T08:50:22Z</time>
      </trkpt>
      <trkpt lat="47.20382" lon="5.61211">
        <ele>303.917969</ele>
        <time>2014-09-23T08:50:42Z</time>
      </trkpt>
      <trkpt lat="47.20374" lon="5.6119">
        <ele>306.15744</ele>
        <time>2014-09-23T08:51:02Z</time>
      </trkpt>
      <trkpt lat="47.20363" lon="5.61167">
        <ele>308.289703</ele>
        <time>2014-09-23T08:51:22Z</time>
      </trkpt>
      <trkpt lat="47.20356" lon="5.61144">
        <ele>310.90979</ele>
        <time>2014-09-23T08:51:42Z</time>
      </trkpt>
      <trkpt lat="47.20355" lon="5.6114">
        <ele>311.485626</ele>
        <time>2014-09-23T08:52:02Z</time>
      </trkpt>
      <trkpt lat="47.20344" lon="5.61115">
        <ele>313.596466</ele>
        <time>2014-09-23T08:52:22Z</time>
      </trkpt>
      <trkpt lat="47.20334" lon="5.61087">
        <ele>316.816071</ele>
        <time>2014-09-23T08:52:42Z</time>
      </trkpt>
      <trkpt lat="47.20326" lon="5.61071">
        <ele>317.519836</ele>
        <time>2014-09-23T08:53:02Z</time>
      </trkpt>
      <trkpt lat="47.20319" lon="5.61048">
        <ele>320.127563</ele>
        <time>2014-09-23T08:53:22Z</time>
      </trkpt>
      <trkpt lat="47.20316" lon="5.61027">
        <ele>322.834991</ele>
        <time>2014-09-23T08:53:42Z</time>
      </trkpt>
      <trkpt lat="47.20311" lon="5.61013">
        <ele>323.548004</ele>
        <time>2014-09-23T08:54:02Z</time>
      </trkpt>
      <trkpt lat="47.2031" lon="5.60994">
        <ele>326.798828</ele>
        <time>2014-09-23T08:54:22Z</time>
      </trkpt>
      <trkpt lat="47.20304" lon="5.60972">
        <ele>329.866699</ele>
        <time>2014-09-23T08:54:42Z</time>
      </trkpt>
      <trkpt lat="47.20293" lon="5.60948">
        <ele>331.228607</ele>
        <time>2014-09-23T08:55:02Z</time>
      </trkpt>
      <trkpt lat="47.20298" lon="5.60922">
        <ele>338.153076</ele>
        <time>2014-09-23T08:55:22Z</time>
      </trkpt>
      <trkpt lat="47.20293" lon="5.60904">
        <ele>338.790588</ele>
        <time>2014-09-23T08:55:42Z</time>
      </trkpt>
      <trkpt lat="47.20287" lon="5.60878">
        <ele>340.479706</ele>
        <time>2014-09-23T08:56:02Z</time>
      </trkpt>
      <trkpt lat="47.20282" lon="5.60862">
        <ele>341.116974</ele>
        <time>2014-09-23T08:56:22Z</time>
      </trkpt>
      <trkpt lat="47.20288" lon="5.60842">
        <ele>344.814697</ele>
        <time>2014-09-23T08:56:42Z</time>
      </trkpt>
      <trkpt lat="47.20286" lon="5.60814">
        <ele>346.567261</ele>
        <time>2014-09-23T08:57:02Z</time>
      </trkpt>
      <trkpt lat="47.20275" lon="5.60786">
        <ele>345.253815</ele>
        <time>2014-09-23T08:57:22Z</time>
      </trkpt>
      <trkpt lat="47.20273" lon="5.60764">
        <ele>346.480408</ele>
        <time>2014-09-23T08:57:42Z</time>
      </trkpt>
      <trkpt lat="47.20278" lon="5.60737">
        <ele>350.345795</ele>
        <time>2014-09-23T08:58:02Z</time>
      </trkpt>
      <trkpt lat="47.20282" lon="5.60709">
        <ele>356.254211</ele>
        <time>2014-09-23T08:58:22Z</time>
      </trkpt>
      <trkpt lat="47.20278" lon="5.60691">
        <ele>358.18988</ele>
        <time>2014-09-23T08:58:42Z</time>
      </trkpt>
      <trkpt lat="47.20278" lon="5.6067">
        <ele>362.13797</ele>
        <time>2014-09-23T08:59:02Z</time>
      </trkpt>
      <trkpt lat="47.20273" lon="5.60651">
        <ele>362.96521</ele>
        <time>2014-09-23T08:59:22Z</time>
      </trkpt>
      <trkpt lat="47.2027" lon="5.60625">
        <ele>365.090759</ele>
        <time>2014-09-23T08:59:42Z</time>
      </trkpt>
      <trkpt lat="47.20261" lon="5.60606">
        <ele>364.196381</ele>
        <time>2014-09-23T09:00:02Z</time>
      </trkpt>
      <trkpt lat="47.2025" lon="5.60585">
        <ele>363.084412</ele>
        <time>2014-09-23T09:00:22Z</time>
      </trkpt>
      <trkpt lat="47.20241" lon="5.60554">
        <ele>365.705536</ele>
        <time>2014-09-23T09:00:42Z</time>
      </trkpt>
      <trkpt lat="47.20226" lon="5.60525">
        <ele>367.422852</ele>
        <time>2014-09-23T09:01:02Z</time>
      </trkpt>
      <trkpt lat="47.20223" lon="5.605">
        <ele>369.322815</ele>
        <time>2014-09-23T09:01:22Z</time>
      </trkpt>
      <trkpt lat="47.20217" lon="5.60475">
        <ele>370.811249</ele>
        <time>2014-09-23T09:01:42Z</time>
      </trkpt>
      <trkpt lat="47.20219" lon="5.60453">
        <ele>373.561401</ele>
        <time>2014-09-23T09:02:02Z</time>
      </trkpt>
      <trkpt lat="47.20225" lon="5.60431">
        <ele>376.273254</ele>
        <time>2014-09-23T09:02:22Z</time>
      </trkpt>
      <trkpt lat="47.20231" lon="5.60403">
        <ele>379.466248</ele>
        <time>2014-09-23T09:02:42Z</time>
      </trkpt>
      <trkpt lat="47.20238" lon="5.60382">
        <ele>381.743103</ele>
        <time>2014-09-23T09:03:02Z</time>
      </trkpt>
      <trkpt lat="47.20246" lon="5.60356">
        <ele>383.579376</ele>
        <time>2014-09-23T09:03:22Z</time>
      </trkpt>
      <trkpt lat="47.20258" lon="5.60329">
        <ele>385.212494</ele>
        <time>2014-09-23T09:03:42Z</time>
      </trkpt>
      <trkpt lat="47.20267" lon="5.60307">
        <ele>385.441254</ele>
        <time>2014-09-23T09:04:02Z</time>
      </trkpt>
      <trkpt lat="47.20281" lon="5.60282">
        <ele>385.923737</ele>
        <time>2014-09-23T09:04:22Z</time>
      </trkpt>
      <trkpt lat="47.20281" lon="5.60256">
        <ele>385.504761</ele>
        <time>2014-09-23T09:04:42Z</time>
      </trkpt>
      <trkpt lat="47.20281" lon="5.60229">
        <ele>384.98761</ele>
        <time>2014-09-23T09:05:02Z</time>
      </trkpt>
      <trkpt lat="47.20282" lon="5.602">
        <ele>384.536133</ele>
        <time>2014-09-23T09:05:22Z</time>
      </trkpt>
      <trkpt lat="47.20285" lon="5.60167">
        <ele>384.6828</ele>
        <time>2014-09-23T09:05:42Z</time>
      </trkpt>
      <trkpt lat="47.20293" lon="5.6014">
        <ele>385.004028</ele>
        <time>2014-09-23T09:06:02Z</time>
      </trkpt>
      <trkpt lat="47.20296" lon="5.60108">
        <ele>383.818359</ele>
        <time>2014-09-23T09:06:22Z</time>
      </trkpt>
      <trkpt lat="47.20304" lon="5.60077">
        <ele>382.785706</ele>
        <time>2014-09-23T09:06:42Z</time>
      </trkpt>
      <trkpt lat="47.20309" lon="5.60044">
        <ele>382.326233</ele>
        <time>2014-09-23T09:07:02Z</time>
      </trkpt>
      <trkpt lat="47.20304" lon="5.60013">
        <ele>381.639984</ele>
        <time>2014-09-23T09:07:22Z</time>
      </trkpt>
      <trkpt lat="47.20305" lon="5.59981">
        <ele>381.519989</ele>
        <time>2014-09-23T09:07:42Z</time>
      </trkpt>
      <trkpt lat="47.20312" lon="5.59949">
        <ele>381.790009</ele>
        <time>2014-09-23T09:08:02Z</time>
      </trkpt>
      <trkpt lat="47.20318" lon="5.59917">
        <ele>382</ele>
        <time>2014-09-23T09:08:22Z</time>
      </trkpt>
      <trkpt lat="47.20327" lon="5.5989">
        <ele>382.350006</ele>
        <time>2014-09-23T09:08:42Z</time>
      </trkpt>
      <trkpt lat="47.20332" lon="5.59855">
        <ele>382.836243</ele>
        <time>2014-09-23T09:09:02Z</time>
      </trkpt>
      <trkpt lat="47.20326" lon="5.59828">
        <ele>382.966248</ele>
        <time>2014-09-23T09:09:22Z</time>
      </trkpt>
      <trkpt lat="47.20327" lon="5.59795">
        <ele>383.404694</ele>
        <time>2014-09-23T09:09:42Z</time>
      </trkpt>
      <trkpt lat="47.20315" lon="5.59766">
        <ele>383.520203</ele>
        <time>2014-09-23T09:10:02Z</time>
      </trkpt>
      <trkpt lat="47.20326" lon="5.59738">
        <ele>384.080994</ele>
        <time>2014-09-23T09:10:22Z</time>
      </trkpt>
      <trkpt lat="47.20327" lon="5.5971">
        <ele>384.700714</ele>
        <time>2014-09-23T09:10:42Z</time>
      </trkpt>
      <trkpt lat="47.20313" lon="5.59673">
        <ele>385.788757</ele>
        <time>2014-09-23T09:11:02Z</time>
      </trkpt>
      <trkpt lat="47.20304" lon="5.59641">
        <ele>386.5</ele>
        <time>2014-09-23T09:11:22Z</time>
      </trkpt>
      <trkpt lat="47.203" lon="5.5961">
        <ele>386.8797</ele>
        <time>2014-09-23T09:11:42Z</time>
      </trkpt>
      <trkpt lat="47.20303" lon="5.59602">
        <ele>387.070709</ele>
        <time>2014-09-23T09:12:02Z</time>
      </trkpt>
      <trkpt lat="47.20305" lon="5.59602">
        <ele>387.088226</ele>
        <time>2014-09-23T09:12:22Z</time>
      </trkpt>
      <trkpt lat="47.20305" lon="5.59602">
        <ele>387.094269</ele>
        <time>2014-09-23T09:12:42Z</time>
      </trkpt>
      <trkpt lat="47.20305" lon="5.59602">
        <ele>387.094269</ele>
        <time>2014-09-23T09:13:02Z</time>
      </trkpt>
      <trkpt lat="47.20305" lon="5.59601">
        <ele>387.09668</ele>
        <time>2014-09-23T09:13:22Z</time>
      </trkpt>
      <trkpt lat="47.20305" lon="5.59602">
        <ele>387.089813</ele>
        <time>2014-09-23T09:13:42Z</time>
      </trkpt>
      <trkpt lat="47.20305" lon="5.59602">
        <ele>387.097198</ele>
        <time>2014-09-23T09:14:02Z</time>
      </trkpt>
      <trkpt lat="47.20305" lon="5.59602">
        <ele>387.097198</ele>
        <time>2014-09-23T09:14:22Z</time>
      </trkpt>
      <trkpt lat="47.20305" lon="5.59602">
        <ele>387.097198</ele>
        <time>2014-09-23T09:14:42Z</time>
      </trkpt>
      <trkpt lat="47.20304" lon="5.59602">
        <ele>387.0867</ele>
        <time>2014-09-23T09:15:02Z</time>
      </trkpt>
      <trkpt lat="47.20304" lon="5.59602">
        <ele>387.0867</ele>
        <time>2014-09-23T09:15:22Z</time>
      </trkpt>
      <trkpt lat="47.20303" lon="5.59603">
        <ele>387.065399</ele>
        <time>2014-09-23T09:15:42Z</time>
      </trkpt>
      <trkpt lat="47.20301" lon="5.59601">
        <ele>387.058258</ele>
        <time>2014-09-23T09:16:02Z</time>
      </trkpt>
      <trkpt lat="47.20302" lon="5.59602">
        <ele>387.047791</ele>
        <time>2014-09-23T09:16:22Z</time>
      </trkpt>
      <trkpt lat="47.20299" lon="5.59596">
        <ele>387.121765</ele>
        <time>2014-09-23T09:16:42Z</time>
      </trkpt>
      <trkpt lat="47.20308" lon="5.59574">
        <ele>387.377686</ele>
        <time>2014-09-23T09:17:02Z</time>
      </trkpt>
      <trkpt lat="47.20327" lon="5.59555">
        <ele>386.173859</ele>
        <time>2014-09-23T09:17:22Z</time>
      </trkpt>
      <trkpt lat="47.20342" lon="5.59537">
        <ele>384.549866</ele>
        <time>2014-09-23T09:17:42Z</time>
      </trkpt>
      <trkpt lat="47.20349" lon="5.59525">
        <ele>383.638611</ele>
        <time>2014-09-23T09:18:02Z</time>
      </trkpt>
      <trkpt lat="47.20365" lon="5.59504">
        <ele>380.552979</ele>
        <time>2014-09-23T09:18:22Z</time>
      </trkpt>
      <trkpt lat="47.20383" lon="5.59476">
        <ele>376.347412</ele>
        <time>2014-09-23T09:18:42Z</time>
      </trkpt>
      <trkpt lat="47.20401" lon="5.59455">
        <ele>371.277496</ele>
        <time>2014-09-23T09:19:02Z</time>
      </trkpt>
      <trkpt lat="47.20409" lon="5.59446">
        <ele>368.524994</ele>
        <time>2014-09-23T09:19:22Z</time>
      </trkpt>
      <trkpt lat="47.20416" lon="5.59444">
        <ele>366.42749</ele>
        <time>2014-09-23T09:19:42Z</time>
      </trkpt>
      <trkpt lat="47.20417" lon="5.59432">
        <ele>365.265015</ele>
        <time>2014-09-23T09:20:02Z</time>
      </trkpt>
      <trkpt lat="47.20423" lon="5.59425">
        <ele>363.309998</ele>
        <time>2014-09-23T09:20:22Z</time>
      </trkpt>
      <trkpt lat="47.20427" lon="5.59411">
        <ele>361.099274</ele>
        <time>2014-09-23T09:20:42Z</time>
      </trkpt>
      <trkpt lat="47.2043" lon="5.59406">
        <ele>359.890198</ele>
        <time>2014-09-23T09:21:02Z</time>
      </trkpt>
      <trkpt lat="47.20444" lon="5.59397">
        <ele>355.370087</ele>
        <time>2014-09-23T09:21:22Z</time>
      </trkpt>
      <trkpt lat="47.2045" lon="5.59392">
        <ele>352.936737</ele>
        <time>2014-09-23T09:21:42Z</time>
      </trkpt>
      <trkpt lat="47.20457" lon="5.59381">
        <ele>349.49646</ele>
        <time>2014-09-23T09:22:02Z</time>
      </trkpt>
      <trkpt lat="47.20464" lon="5.59367">
        <ele>346.257965</ele>
        <time>2014-09-23T09:22:22Z</time>
      </trkpt>
      <trkpt lat="47.20466" lon="5.59359">
        <ele>344.864563</ele>
        <time>2014-09-23T09:22:42Z</time>
      </trkpt>
      <trkpt lat="47.20468" lon="5.59356">
        <ele>344.05368</ele>
        <time>2014-09-23T09:23:02Z</time>
      </trkpt>
      <trkpt lat="47.20468" lon="5.59356">
        <ele>343.985504</ele>
        <time>2014-09-23T09:23:22Z</time>
      </trkpt>
      <trkpt lat="47.20468" lon="5.59355">
        <ele>343.834503</ele>
        <time>2014-09-23T09:23:42Z</time>
      </trkpt>
      <trkpt lat="47.20474" lon="5.59351">
        <ele>341.609711</ele>
        <time>2014-09-23T09:24:02Z</time>
      </trkpt>
      <trkpt lat="47.20491" lon="5.59368">
        <ele>336.82605</ele>
        <time>2014-09-23T09:24:21Z</time>
      </trkpt>
      <trkpt lat="47.20529" lon="5.59403">
        <ele>326.528625</ele>
        <time>2014-09-23T09:25:02Z</time>
      </trkpt>
      <trkpt lat="47.20533" lon="5.59417">
        <ele>325.320557</ele>
        <time>2014-09-23T09:25:22Z</time>
      </trkpt>
      <trkpt lat="47.2055" lon="5.59438">
        <ele>321.138763</ele>
        <time>2014-09-23T09:25:42Z</time>
      </trkpt>
      <trkpt lat="47.20574" lon="5.59483">
        <ele>316.299988</ele>
        <time>2014-09-23T09:26:22Z</time>
      </trkpt>
      <trkpt lat="47.20615" lon="5.59533">
        <ele>308.448425</ele>
        <time>2014-09-23T09:27:02Z</time>
      </trkpt>
      <trkpt lat="47.20615" lon="5.59533">
        <ele>308.448425</ele>
        <time>2014-09-23T09:27:22Z</time>
      </trkpt>
      <trkpt lat="47.20618" lon="5.59539">
        <ele>308.258087</ele>
        <time>2014-09-23T09:27:42Z</time>
      </trkpt>
      <trkpt lat="47.20636" lon="5.59558">
        <ele>304.047607</ele>
        <time>2014-09-23T09:28:02Z</time>
      </trkpt>
      <trkpt lat="47.20646" lon="5.59576">
        <ele>301.997498</ele>
        <time>2014-09-23T09:28:22Z</time>
      </trkpt>
      <trkpt lat="47.20647" lon="5.59598">
        <ele>303.367493</ele>
        <time>2014-09-23T09:28:42Z</time>
      </trkpt>
      <trkpt lat="47.20652" lon="5.59616">
        <ele>303.017487</ele>
        <time>2014-09-23T09:29:02Z</time>
      </trkpt>
      <trkpt lat="47.20654" lon="5.59626">
        <ele>302.984985</ele>
        <time>2014-09-23T09:29:22Z</time>
      </trkpt>
      <trkpt lat="47.20656" lon="5.59627">
        <ele>302.610016</ele>
        <time>2014-09-23T09:29:42Z</time>
      </trkpt>
      <trkpt lat="47.20656" lon="5.5962">
        <ele>301.797516</ele>
        <time>2014-09-23T09:30:02Z</time>
      </trkpt>
      <trkpt lat="47.20661" lon="5.59614">
        <ele>299.757507</ele>
        <time>2014-09-23T09:30:22Z</time>
      </trkpt>
      <trkpt lat="47.20676" lon="5.59611">
        <ele>293.997406</ele>
        <time>2014-09-23T09:30:42Z</time>
      </trkpt>
      <trkpt lat="47.20682" lon="5.59607">
        <ele>291.474152</ele>
        <time>2014-09-23T09:31:02Z</time>
      </trkpt>
      <trkpt lat="47.20687" lon="5.59583">
        <ele>287.942657</ele>
        <time>2014-09-23T09:31:22Z</time>
      </trkpt>
      <trkpt lat="47.20696" lon="5.59562">
        <ele>283.55249</ele>
        <time>2014-09-23T09:31:42Z</time>
      </trkpt>
      <trkpt lat="47.20704" lon="5.59547">
        <ele>280.325562</ele>
        <time>2014-09-23T09:32:02Z</time>
      </trkpt>
      <trkpt lat="47.20715" lon="5.59532">
        <ele>276.717407</ele>
        <time>2014-09-23T09:32:22Z</time>
      </trkpt>
      <trkpt lat="47.20723" lon="5.59515">
        <ele>274.740631</ele>
        <time>2014-09-23T09:32:42Z</time>
      </trkpt>
      <trkpt lat="47.20741" lon="5.59494">
        <ele>271.243439</ele>
        <time>2014-09-23T09:33:02Z</time>
      </trkpt>
      <trkpt lat="47.20777" lon="5.59453">
        <ele>264.994995</ele>
        <time>2014-09-23T09:33:42Z</time>
      </trkpt>
      <trkpt lat="47.20785" lon="5.59438">
        <ele>263.45639</ele>
        <time>2014-09-23T09:34:01Z</time>
      </trkpt>
      <trkpt lat="47.20791" lon="5.59429">
        <ele>262.574127</ele>
        <time>2014-09-23T09:34:21Z</time>
      </trkpt>
      <trkpt lat="47.208" lon="5.59415">
        <ele>261.277588</ele>
        <time>2014-09-23T09:34:41Z</time>
      </trkpt>
      <trkpt lat="47.20811" lon="5.59405">
        <ele>260.612823</ele>
        <time>2014-09-23T09:35:01Z</time>
      </trkpt>
      <trkpt lat="47.20812" lon="5.59402">
        <ele>260.648621</ele>
        <time>2014-09-23T09:35:21Z</time>
      </trkpt>
      <trkpt lat="47.20812" lon="5.59403">
        <ele>260.641113</ele>
        <time>2014-09-23T09:35:41Z</time>
      </trkpt>
      <trkpt lat="47.20814" lon="5.59401">
        <ele>260.721741</ele>
        <time>2014-09-23T09:36:01Z</time>
      </trkpt>
      <trkpt lat="47.20814" lon="5.59401">
        <ele>260.721741</ele>
        <time>2014-09-23T09:36:21Z</time>
      </trkpt>
      <trkpt lat="47.20814" lon="5.59402">
        <ele>260.720001</ele>
        <time>2014-09-23T09:36:41Z</time>
      </trkpt>
      <trkpt lat="47.20814" lon="5.59402">
        <ele>260.728271</ele>
        <time>2014-09-23T09:37:01Z</time>
      </trkpt>
      <trkpt lat="47.20815" lon="5.59401">
        <ele>260.746155</ele>
        <time>2014-09-23T09:37:22Z</time>
      </trkpt>
      <trkpt lat="47.20815" lon="5.59401">
        <ele>260.746155</ele>
        <time>2014-09-23T09:37:42Z</time>
      </trkpt>
      <trkpt lat="47.20815" lon="5.59401">
        <ele>260.766571</ele>
        <time>2014-09-23T09:38:02Z</time>
      </trkpt>
      <trkpt lat="47.20815" lon="5.59401">
        <ele>260.766571</ele>
        <time>2014-09-23T09:38:22Z</time>
      </trkpt>
      <trkpt lat="47.20817" lon="5.594">
        <ele>260.849823</ele>
        <time>2014-09-23T09:38:42Z</time>
      </trkpt>
      <trkpt lat="47.20817" lon="5.594">
        <ele>260.849823</ele>
        <time>2014-09-23T09:39:01Z</time>
      </trkpt>
      <trkpt lat="47.20819" lon="5.594">
        <ele>260.917053</ele>
        <time>2014-09-23T09:39:21Z</time>
      </trkpt>
      <trkpt lat="47.20819" lon="5.594">
        <ele>260.917053</ele>
        <time>2014-09-23T09:39:41Z</time>
      </trkpt>
      <trkpt lat="47.20824" lon="5.59399">
        <ele>261.14035</ele>
        <time>2014-09-23T09:40:01Z</time>
      </trkpt>
      <trkpt lat="47.20825" lon="5.59398">
        <ele>261.198639</ele>
        <time>2014-09-23T09:40:21Z</time>
      </trkpt>
      <trkpt lat="47.20893" lon="5.59341">
        <ele>276.77002</ele>
        <time>2014-09-23T09:41:21Z</time>
      </trkpt>
      <trkpt lat="47.20894" lon="5.5934">
        <ele>277.206604</ele>
        <time>2014-09-23T09:41:41Z</time>
      </trkpt>
      <trkpt lat="47.20895" lon="5.59339">
        <ele>277.345245</ele>
        <time>2014-09-23T09:42:01Z</time>
      </trkpt>
      <trkpt lat="47.209" lon="5.59324">
        <ele>279.380096</ele>
        <time>2014-09-23T09:42:21Z</time>
      </trkpt>
      <trkpt lat="47.20964" lon="5.59257">
        <ele>294.217834</ele>
        <time>2014-09-23T09:43:21Z</time>
      </trkpt>
      <trkpt lat="47.20981" lon="5.59239">
        <ele>295.97522</ele>
        <time>2014-09-23T09:43:41Z</time>
      </trkpt>
      <trkpt lat="47.20999" lon="5.59214">
        <ele>295.389313</ele>
        <time>2014-09-23T09:44:01Z</time>
      </trkpt>
      <trkpt lat="47.21007" lon="5.59201">
        <ele>293.903168</ele>
        <time>2014-09-23T09:44:21Z</time>
      </trkpt>
      <trkpt lat="47.21007" lon="5.59201">
        <ele>293.903168</ele>
        <time>2014-09-23T09:44:41Z</time>
      </trkpt>
      <trkpt lat="47.21007" lon="5.59201">
        <ele>293.884735</ele>
        <time>2014-09-23T09:45:01Z</time>
      </trkpt>
      <trkpt lat="47.21003" lon="5.59179">
        <ele>293.838501</ele>
        <time>2014-09-23T09:45:20Z</time>
      </trkpt>
      <trkpt lat="47.20997" lon="5.59154">
        <ele>294.164246</ele>
        <time>2014-09-23T09:45:40Z</time>
      </trkpt>
      <trkpt lat="47.20985" lon="5.59126">
        <ele>294.633759</ele>
        <time>2014-09-23T09:46:00Z</time>
      </trkpt>
      <trkpt lat="47.20976" lon="5.59111">
        <ele>294.823303</ele>
        <time>2014-09-23T09:46:20Z</time>
      </trkpt>
      <trkpt lat="47.20967" lon="5.59097">
        <ele>295.169983</ele>
        <time>2014-09-23T09:46:40Z</time>
      </trkpt>
      <trkpt lat="47.20954" lon="5.5907">
        <ele>295.845001</ele>
        <time>2014-09-23T09:47:00Z</time>
      </trkpt>
      <trkpt lat="47.20939" lon="5.59045">
        <ele>295.471558</ele>
        <time>2014-09-23T09:47:20Z</time>
      </trkpt>
      <trkpt lat="47.20932" lon="5.5903">
        <ele>294.979706</ele>
        <time>2014-09-23T09:47:40Z</time>
      </trkpt>
      <trkpt lat="47.20924" lon="5.59016">
        <ele>294.74585</ele>
        <time>2014-09-23T09:48:00Z</time>
      </trkpt>
      <trkpt lat="47.20923" lon="5.59011">
        <ele>294.67749</ele>
        <time>2014-09-23T09:48:20Z</time>
      </trkpt>
      <trkpt lat="47.20913" lon="5.58997">
        <ele>294.812164</ele>
        <time>2014-09-23T09:48:40Z</time>
      </trkpt>
      <trkpt lat="47.20892" lon="5.58974">
        <ele>294.227905</ele>
        <time>2014-09-23T09:49:00Z</time>
      </trkpt>
      <trkpt lat="47.20874" lon="5.58955">
        <ele>293.521545</ele>
        <time>2014-09-23T09:49:20Z</time>
      </trkpt>
      <trkpt lat="47.20854" lon="5.5894">
        <ele>293.53479</ele>
        <time>2014-09-23T09:49:40Z</time>
      </trkpt>
      <trkpt lat="47.20849" lon="5.58933">
        <ele>293.712738</ele>
        <time>2014-09-23T09:50:00Z</time>
      </trkpt>
      <trkpt lat="47.20849" lon="5.58933">
        <ele>293.712738</ele>
        <time>2014-09-23T09:50:20Z</time>
      </trkpt>
      <trkpt lat="47.20842" lon="5.5892">
        <ele>294.302673</ele>
        <time>2014-09-23T09:50:40Z</time>
      </trkpt>
      <trkpt lat="47.20838" lon="5.58917">
        <ele>294.625305</ele>
        <time>2014-09-23T09:51:00Z</time>
      </trkpt>
      <trkpt lat="47.20817" lon="5.58903">
        <ele>295.921387</ele>
        <time>2014-09-23T09:51:20Z</time>
      </trkpt>
      <trkpt lat="47.20797" lon="5.58888">
        <ele>296.508575</ele>
        <time>2014-09-23T09:51:40Z</time>
      </trkpt>
      <trkpt lat="47.20794" lon="5.58886">
        <ele>296.632568</ele>
        <time>2014-09-23T09:52:00Z</time>
      </trkpt>
      <trkpt lat="47.20778" lon="5.58876">
        <ele>297.410034</ele>
        <time>2014-09-23T09:52:20Z</time>
      </trkpt>
      <trkpt lat="47.20777" lon="5.58876">
        <ele>297.436157</ele>
        <time>2014-09-23T09:52:40Z</time>
      </trkpt>
      <trkpt lat="47.20771" lon="5.58872">
        <ele>297.678589</ele>
        <time>2014-09-23T09:53:00Z</time>
      </trkpt>
      <trkpt lat="47.20755" lon="5.58856">
        <ele>298.543762</ele>
        <time>2014-09-23T09:53:20Z</time>
      </trkpt>
      <trkpt lat="47.20738" lon="5.58838">
        <ele>299.537506</ele>
        <time>2014-09-23T09:53:40Z</time>
      </trkpt>
      <trkpt lat="47.20736" lon="5.58835">
        <ele>299.57251</ele>
        <time>2014-09-23T09:54:00Z</time>
      </trkpt>
      <trkpt lat="47.20731" lon="5.5883">
        <ele>299.663086</ele>
        <time>2014-09-23T09:54:19Z</time>
      </trkpt>
      <trkpt lat="47.20731" lon="5.5883">
        <ele>299.658661</ele>
        <time>2014-09-23T09:54:39Z</time>
      </trkpt>
      <trkpt lat="47.206" lon="5.58762">
        <ele>314.718781</ele>
        <time>2014-09-23T09:56:39Z</time>
      </trkpt>
      <trkpt lat="47.20599" lon="5.58761">
        <ele>314.903595</ele>
        <time>2014-09-23T09:56:59Z</time>
      </trkpt>
      <trkpt lat="47.20599" lon="5.58761">
        <ele>314.903595</ele>
        <time>2014-09-23T09:57:19Z</time>
      </trkpt>
      <trkpt lat="47.20537" lon="5.58734">
        <ele>326.964539</ele>
        <time>2014-09-23T09:58:19Z</time>
      </trkpt>
      <trkpt lat="47.20537" lon="5.58734">
        <ele>326.964539</ele>
        <time>2014-09-23T09:58:39Z</time>
      </trkpt>
      <trkpt lat="47.20536" lon="5.58734">
        <ele>327.0737</ele>
        <time>2014-09-23T09:58:59Z</time>
      </trkpt>
      <trkpt lat="47.20536" lon="5.58734">
        <ele>327.0737</ele>
        <time>2014-09-23T09:59:19Z</time>
      </trkpt>
      <trkpt lat="47.20535" lon="5.58734">
        <ele>327.185913</ele>
        <time>2014-09-23T09:59:39Z</time>
      </trkpt>
      <trkpt lat="47.20535" lon="5.58734">
        <ele>327.185913</ele>
        <time>2014-09-23T09:59:59Z</time>
      </trkpt>
      <trkpt lat="47.20534" lon="5.58732">
        <ele>327.337708</ele>
        <time>2014-09-23T10:00:19Z</time>
      </trkpt>
      <trkpt lat="47.20534" lon="5.58732">
        <ele>327.337708</ele>
        <time>2014-09-23T10:00:39Z</time>
      </trkpt>
      <trkpt lat="47.20533" lon="5.58732">
        <ele>327.502045</ele>
        <time>2014-09-23T10:00:59Z</time>
      </trkpt>
      <trkpt lat="47.20533" lon="5.58732">
        <ele>327.502045</ele>
        <time>2014-09-23T10:01:19Z</time>
      </trkpt>
      <trkpt lat="47.20533" lon="5.58733">
        <ele>327.550629</ele>
        <time>2014-09-23T10:01:39Z</time>
      </trkpt>
      <trkpt lat="47.20533" lon="5.58733">
        <ele>327.550629</ele>
        <time>2014-09-23T10:01:59Z</time>
      </trkpt>
      <trkpt lat="47.2053" lon="5.58732">
        <ele>327.90332</ele>
        <time>2014-09-23T10:02:19Z</time>
      </trkpt>
      <trkpt lat="47.20517" lon="5.58714">
        <ele>330.229614</ele>
        <time>2014-09-23T10:02:39Z</time>
      </trkpt>
      <trkpt lat="47.20515" lon="5.58712">
        <ele>330.588745</ele>
        <time>2014-09-23T10:02:59Z</time>
      </trkpt>
      <trkpt lat="47.20515" lon="5.58712">
        <ele>330.588745</ele>
        <time>2014-09-23T10:03:19Z</time>
      </trkpt>
      <trkpt lat="47.20514" lon="5.58711">
        <ele>330.80542</ele>
        <time>2014-09-23T10:03:39Z</time>
      </trkpt>
      <trkpt lat="47.20514" lon="5.58711">
        <ele>330.80542</ele>
        <time>2014-09-23T10:03:59Z</time>
      </trkpt>
      <trkpt lat="47.20513" lon="5.5871">
        <ele>330.914093</ele>
        <time>2014-09-23T10:04:19Z</time>
      </trkpt>
      <trkpt lat="47.20513" lon="5.5871">
        <ele>330.914093</ele>
        <time>2014-09-23T10:04:39Z</time>
      </trkpt>
      <trkpt lat="47.20513" lon="5.5871">
        <ele>331.008331</ele>
        <time>2014-09-23T10:04:59Z</time>
      </trkpt>
      <trkpt lat="47.20513" lon="5.5871">
        <ele>331.008331</ele>
        <time>2014-09-23T10:05:19Z</time>
      </trkpt>
      <trkpt lat="47.20512" lon="5.5871">
        <ele>331.092041</ele>
        <time>2014-09-23T10:05:39Z</time>
      </trkpt>
      <trkpt lat="47.20512" lon="5.5871">
        <ele>331.092041</ele>
        <time>2014-09-23T10:05:59Z</time>
      </trkpt>
      <trkpt lat="47.20467" lon="5.58692">
        <ele>334.957733</ele>
        <time>2014-09-23T10:06:39Z</time>
      </trkpt>
      <trkpt lat="47.20395" lon="5.58715">
        <ele>333.011566</ele>
        <time>2014-09-23T10:07:39Z</time>
      </trkpt>
      <trkpt lat="47.20399" lon="5.58711">
        <ele>333.088257</ele>
        <time>2014-09-23T10:07:59Z</time>
      </trkpt>
      <trkpt lat="47.20387" lon="5.58688">
        <ele>335.051483</ele>
        <time>2014-09-23T10:08:19Z</time>
      </trkpt>
      <trkpt lat="47.20374" lon="5.58658">
        <ele>337.081604</ele>
        <time>2014-09-23T10:08:39Z</time>
      </trkpt>
      <trkpt lat="47.20354" lon="5.5865">
        <ele>340.141388</ele>
        <time>2014-09-23T10:08:59Z</time>
      </trkpt>
      <trkpt lat="47.20341" lon="5.58664">
        <ele>341.535889</ele>
        <time>2014-09-23T10:09:19Z</time>
      </trkpt>
      <trkpt lat="47.20342" lon="5.58685">
        <ele>340.979126</ele>
        <time>2014-09-23T10:09:39Z</time>
      </trkpt>
      <trkpt lat="47.20344" lon="5.58712">
        <ele>340.942657</ele>
        <time>2014-09-23T10:09:59Z</time>
      </trkpt>
      <trkpt lat="47.20337" lon="5.58741">
        <ele>342.668701</ele>
        <time>2014-09-23T10:10:19Z</time>
      </trkpt>
      <trkpt lat="47.20338" lon="5.58759">
        <ele>342.936005</ele>
        <time>2014-09-23T10:10:39Z</time>
      </trkpt>
      <trkpt lat="47.20338" lon="5.58759">
        <ele>342.936005</ele>
        <time>2014-09-23T10:10:59Z</time>
      </trkpt>
      <trkpt lat="47.20338" lon="5.58789">
        <ele>344.369751</ele>
        <time>2014-09-23T10:11:19Z</time>
      </trkpt>
      <trkpt lat="47.20317" lon="5.58948">
        <ele>359.929688</ele>
        <time>2014-09-23T10:12:39Z</time>
      </trkpt>
      <trkpt lat="47.2029" lon="5.58987">
        <ele>366.34726</ele>
        <time>2014-09-23T10:13:19Z</time>
      </trkpt>
      <trkpt lat="47.2029" lon="5.58987">
        <ele>366.34726</ele>
        <time>2014-09-23T10:13:39Z</time>
      </trkpt>
      <trkpt lat="47.2029" lon="5.58987">
        <ele>366.378204</ele>
        <time>2014-09-23T10:13:59Z</time>
      </trkpt>
      <trkpt lat="47.2029" lon="5.58987">
        <ele>366.378204</ele>
        <time>2014-09-23T10:14:19Z</time>
      </trkpt>
      <trkpt lat="47.20281" lon="5.58958">
        <ele>366.769897</ele>
        <time>2014-09-23T10:14:39Z</time>
      </trkpt>
      <trkpt lat="47.20272" lon="5.58929">
        <ele>366.525665</ele>
        <time>2014-09-23T10:14:59Z</time>
      </trkpt>
      <trkpt lat="47.20266" lon="5.58902">
        <ele>365.764801</ele>
        <time>2014-09-23T10:15:19Z</time>
      </trkpt>
      <trkpt lat="47.2026" lon="5.58865">
        <ele>364.946198</ele>
        <time>2014-09-23T10:15:39Z</time>
      </trkpt>
      <trkpt lat="47.20257" lon="5.58823">
        <ele>364.42099</ele>
        <time>2014-09-23T10:15:59Z</time>
      </trkpt>
      <trkpt lat="47.2025" lon="5.5879">
        <ele>364.671387</ele>
        <time>2014-09-23T10:16:19Z</time>
      </trkpt>
      <trkpt lat="47.20245" lon="5.58758">
        <ele>364.809753</ele>
        <time>2014-09-23T10:16:39Z</time>
      </trkpt>
      <trkpt lat="47.20241" lon="5.58736">
        <ele>365.321259</ele>
        <time>2014-09-23T10:16:59Z</time>
      </trkpt>
      <trkpt lat="47.20232" lon="5.58714">
        <ele>365.768829</ele>
        <time>2014-09-23T10:17:19Z</time>
      </trkpt>
      <trkpt lat="47.2022" lon="5.58676">
        <ele>366.712433</ele>
        <time>2014-09-23T10:17:39Z</time>
      </trkpt>
      <trkpt lat="47.20209" lon="5.58642">
        <ele>367.626343</ele>
        <time>2014-09-23T10:17:59Z</time>
      </trkpt>
      <trkpt lat="47.20202" lon="5.58609">
        <ele>368.86499</ele>
        <time>2014-09-23T10:18:19Z</time>
      </trkpt>
      <trkpt lat="47.20192" lon="5.58575">
        <ele>368.367737</ele>
        <time>2014-09-23T10:18:39Z</time>
      </trkpt>
      <trkpt lat="47.20181" lon="5.58544">
        <ele>368.38501</ele>
        <time>2014-09-23T10:18:59Z</time>
      </trkpt>
      <trkpt lat="47.20171" lon="5.5851">
        <ele>369.563873</ele>
        <time>2014-09-23T10:19:19Z</time>
      </trkpt>
      <trkpt lat="47.2016" lon="5.58481">
        <ele>371.871246</ele>
        <time>2014-09-23T10:19:39Z</time>
      </trkpt>
      <trkpt lat="47.20151" lon="5.58447">
        <ele>371.68689</ele>
        <time>2014-09-23T10:19:59Z</time>
      </trkpt>
      <trkpt lat="47.20143" lon="5.58416">
        <ele>371.501892</ele>
        <time>2014-09-23T10:20:19Z</time>
      </trkpt>
      <trkpt lat="47.20133" lon="5.58386">
        <ele>371.855652</ele>
        <time>2014-09-23T10:20:39Z</time>
      </trkpt>
      <trkpt lat="47.20122" lon="5.58356">
        <ele>373.394135</ele>
        <time>2014-09-23T10:20:59Z</time>
      </trkpt>
      <trkpt lat="47.20113" lon="5.58319">
        <ele>372.913055</ele>
        <time>2014-09-23T10:21:19Z</time>
      </trkpt>
      <trkpt lat="47.20098" lon="5.58293">
        <ele>371.622345</ele>
        <time>2014-09-23T10:21:39Z</time>
      </trkpt>
      <trkpt lat="47.2009" lon="5.58267">
        <ele>370.939606</ele>
        <time>2014-09-23T10:21:59Z</time>
      </trkpt>
      <trkpt lat="47.2008" lon="5.58237">
        <ele>370.419891</ele>
        <time>2014-09-23T10:22:19Z</time>
      </trkpt>
      <trkpt lat="47.20071" lon="5.58196">
        <ele>369.305511</ele>
        <time>2014-09-23T10:22:39Z</time>
      </trkpt>
      <trkpt lat="47.20065" lon="5.58159">
        <ele>367.494598</ele>
        <time>2014-09-23T10:22:59Z</time>
      </trkpt>
      <trkpt lat="47.20058" lon="5.58123">
        <ele>365.98584</ele>
        <time>2014-09-23T10:23:19Z</time>
      </trkpt>
      <trkpt lat="47.20045" lon="5.58094">
        <ele>365.143738</ele>
        <time>2014-09-23T10:23:39Z</time>
      </trkpt>
      <trkpt lat="47.20039" lon="5.58058">
        <ele>363.471832</ele>
        <time>2014-09-23T10:23:59Z</time>
      </trkpt>
      <trkpt lat="47.20031" lon="5.58024">
        <ele>362.097504</ele>
        <time>2014-09-23T10:24:19Z</time>
      </trkpt>
      <trkpt lat="47.20023" lon="5.57994">
        <ele>360.904175</ele>
        <time>2014-09-23T10:24:39Z</time>
      </trkpt>
      <trkpt lat="47.20013" lon="5.57957">
        <ele>360.159393</ele>
        <time>2014-09-23T10:24:59Z</time>
      </trkpt>
      <trkpt lat="47.20004" lon="5.57925">
        <ele>360.116608</ele>
        <time>2014-09-23T10:25:19Z</time>
      </trkpt>
      <trkpt lat="47.19986" lon="5.57901">
        <ele>361.033844</ele>
        <time>2014-09-23T10:25:39Z</time>
      </trkpt>
      <trkpt lat="47.1997" lon="5.57876">
        <ele>361.101532</ele>
        <time>2014-09-23T10:25:59Z</time>
      </trkpt>
      <trkpt lat="47.19957" lon="5.57856">
        <ele>361.087463</ele>
        <time>2014-09-23T10:26:19Z</time>
      </trkpt>
      <trkpt lat="47.19935" lon="5.57834">
        <ele>360.646362</ele>
        <time>2014-09-23T10:26:39Z</time>
      </trkpt>
      <trkpt lat="47.19915" lon="5.5781">
        <ele>360.055542</ele>
        <time>2014-09-23T10:26:59Z</time>
      </trkpt>
      <trkpt lat="47.19893" lon="5.57788">
        <ele>358.9758</ele>
        <time>2014-09-23T10:27:19Z</time>
      </trkpt>
      <trkpt lat="47.19871" lon="5.57768">
        <ele>357.821075</ele>
        <time>2014-09-23T10:27:39Z</time>
      </trkpt>
      <trkpt lat="47.1985" lon="5.57748">
        <ele>357.686249</ele>
        <time>2014-09-23T10:27:59Z</time>
      </trkpt>
      <trkpt lat="47.19833" lon="5.57731">
        <ele>357.997955</ele>
        <time>2014-09-23T10:28:19Z</time>
      </trkpt>
      <trkpt lat="47.19813" lon="5.57713">
        <ele>358.109985</ele>
        <time>2014-09-23T10:28:39Z</time>
      </trkpt>
      <trkpt lat="47.19789" lon="5.57698">
        <ele>358.640015</ele>
        <time>2014-09-23T10:28:59Z</time>
      </trkpt>
      <trkpt lat="47.19769" lon="5.57678">
        <ele>359.156586</ele>
        <time>2014-09-23T10:29:19Z</time>
      </trkpt>
      <trkpt lat="47.19747" lon="5.57664">
        <ele>360.166138</ele>
        <time>2014-09-23T10:29:39Z</time>
      </trkpt>
      <trkpt lat="47.19726" lon="5.57652">
        <ele>361.0625</ele>
        <time>2014-09-23T10:29:59Z</time>
      </trkpt>
      <trkpt lat="47.19707" lon="5.57632">
        <ele>361.628754</ele>
        <time>2014-09-23T10:30:19Z</time>
      </trkpt>
      <trkpt lat="47.19682" lon="5.57614">
        <ele>362.51474</ele>
        <time>2014-09-23T10:30:39Z</time>
      </trkpt>
      <trkpt lat="47.19662" lon="5.57598">
        <ele>363.594666</ele>
        <time>2014-09-23T10:30:59Z</time>
      </trkpt>
      <trkpt lat="47.1964" lon="5.57581">
        <ele>364.890076</ele>
        <time>2014-09-23T10:31:19Z</time>
      </trkpt>
      <trkpt lat="47.19621" lon="5.57559">
        <ele>365.294373</ele>
        <time>2014-09-23T10:31:39Z</time>
      </trkpt>
      <trkpt lat="47.19605" lon="5.57529">
        <ele>365.695435</ele>
        <time>2014-09-23T10:31:59Z</time>
      </trkpt>
      <trkpt lat="47.19586" lon="5.57503">
        <ele>366.14624</ele>
        <time>2014-09-23T10:32:19Z</time>
      </trkpt>
      <trkpt lat="47.19565" lon="5.5748">
        <ele>366.592499</ele>
        <time>2014-09-23T10:32:39Z</time>
      </trkpt>
      <trkpt lat="47.19542" lon="5.57461">
        <ele>367.082489</ele>
        <time>2014-09-23T10:32:59Z</time>
      </trkpt>
      <trkpt lat="47.19523" lon="5.57439">
        <ele>366.824463</ele>
        <time>2014-09-23T10:33:19Z</time>
      </trkpt>
      <trkpt lat="47.19504" lon="5.5742">
        <ele>366.941406</ele>
        <time>2014-09-23T10:33:39Z</time>
      </trkpt>
      <trkpt lat="47.19489" lon="5.57393">
        <ele>366.663483</ele>
        <time>2014-09-23T10:33:59Z</time>
      </trkpt>
      <trkpt lat="47.19473" lon="5.5737">
        <ele>367.463104</ele>
        <time>2014-09-23T10:34:19Z</time>
      </trkpt>
      <trkpt lat="47.19457" lon="5.57344">
        <ele>368.11615</ele>
        <time>2014-09-23T10:34:39Z</time>
      </trkpt>
      <trkpt lat="47.19441" lon="5.5732">
        <ele>368.529663</ele>
        <time>2014-09-23T10:34:59Z</time>
      </trkpt>
      <trkpt lat="47.19435" lon="5.57282">
        <ele>369.408081</ele>
        <time>2014-09-23T10:35:19Z</time>
      </trkpt>
      <trkpt lat="47.1943" lon="5.5725">
        <ele>370.540253</ele>
        <time>2014-09-23T10:35:39Z</time>
      </trkpt>
      <trkpt lat="47.19427" lon="5.57216">
        <ele>370.967865</ele>
        <time>2014-09-23T10:35:59Z</time>
      </trkpt>
      <trkpt lat="47.19427" lon="5.57182">
        <ele>371</ele>
        <time>2014-09-23T10:36:18Z</time>
      </trkpt>
      <trkpt lat="47.19425" lon="5.5714">
        <ele>371</ele>
        <time>2014-09-23T10:36:39Z</time>
      </trkpt>
      <trkpt lat="47.19423" lon="5.57105">
        <ele>371</ele>
        <time>2014-09-23T10:36:59Z</time>
      </trkpt>
      <trkpt lat="47.19419" lon="5.57075">
        <ele>371</ele>
        <time>2014-09-23T10:37:19Z</time>
      </trkpt>
      <trkpt lat="47.19419" lon="5.57036">
        <ele>371.039154</ele>
        <time>2014-09-23T10:37:39Z</time>
      </trkpt>
      <trkpt lat="47.19415" lon="5.57004">
        <ele>371.232758</ele>
        <time>2014-09-23T10:37:59Z</time>
      </trkpt>
      <trkpt lat="47.1941" lon="5.56969">
        <ele>371.440186</ele>
        <time>2014-09-23T10:38:18Z</time>
      </trkpt>
      <trkpt lat="47.19413" lon="5.56933">
        <ele>371.095184</ele>
        <time>2014-09-23T10:38:38Z</time>
      </trkpt>
      <trkpt lat="47.19407" lon="5.56898">
        <ele>371.269989</ele>
        <time>2014-09-23T10:38:58Z</time>
      </trkpt>
      <trkpt lat="47.194" lon="5.56862">
        <ele>371.619995</ele>
        <time>2014-09-23T10:39:18Z</time>
      </trkpt>
      <trkpt lat="47.19392" lon="5.56834">
        <ele>371.980011</ele>
        <time>2014-09-23T10:39:38Z</time>
      </trkpt>
      <trkpt lat="47.19381" lon="5.56803">
        <ele>371.832062</ele>
        <time>2014-09-23T10:39:58Z</time>
      </trkpt>
      <trkpt lat="47.19371" lon="5.56772">
        <ele>371.548737</ele>
        <time>2014-09-23T10:40:18Z</time>
      </trkpt>
      <trkpt lat="47.19358" lon="5.56742">
        <ele>371.627686</ele>
        <time>2014-09-23T10:40:38Z</time>
      </trkpt>
      <trkpt lat="47.19346" lon="5.5671">
        <ele>371.822357</ele>
        <time>2014-09-23T10:40:58Z</time>
      </trkpt>
      <trkpt lat="47.19334" lon="5.56685">
        <ele>371.667664</ele>
        <time>2014-09-23T10:41:18Z</time>
      </trkpt>
      <trkpt lat="47.19323" lon="5.56656">
        <ele>372.265259</ele>
        <time>2014-09-23T10:41:38Z</time>
      </trkpt>
      <trkpt lat="47.19311" lon="5.56619">
        <ele>373.593292</ele>
        <time>2014-09-23T10:41:58Z</time>
      </trkpt>
      <trkpt lat="47.19298" lon="5.56596">
        <ele>374.17041</ele>
        <time>2014-09-23T10:42:18Z</time>
      </trkpt>
      <trkpt lat="47.19284" lon="5.56566">
        <ele>375.140015</ele>
        <time>2014-09-23T10:42:38Z</time>
      </trkpt>
      <trkpt lat="47.1927" lon="5.56533">
        <ele>375.616241</ele>
        <time>2014-09-23T10:42:57Z</time>
      </trkpt>
      <trkpt lat="47.19263" lon="5.56503">
        <ele>375.881256</ele>
        <time>2014-09-23T10:43:17Z</time>
      </trkpt>
      <trkpt lat="47.19247" lon="5.56474">
        <ele>375.282501</ele>
        <time>2014-09-23T10:43:36Z</time>
      </trkpt>
      <trkpt lat="47.19236" lon="5.56438">
        <ele>374.990784</ele>
        <time>2014-09-23T10:43:57Z</time>
      </trkpt>
      <trkpt lat="47.19226" lon="5.56409">
        <ele>374.979401</ele>
        <time>2014-09-23T10:44:17Z</time>
      </trkpt>
      <trkpt lat="47.1921" lon="5.56375">
        <ele>374.359985</ele>
        <time>2014-09-23T10:44:37Z</time>
      </trkpt>
      <trkpt lat="47.19199" lon="5.56341">
        <ele>373.154907</ele>
        <time>2014-09-23T10:44:57Z</time>
      </trkpt>
      <trkpt lat="47.19188" lon="5.56309">
        <ele>372.208771</ele>
        <time>2014-09-23T10:45:17Z</time>
      </trkpt>
      <trkpt lat="47.19176" lon="5.56275">
        <ele>371.346161</ele>
        <time>2014-09-23T10:45:37Z</time>
      </trkpt>
      <trkpt lat="47.19163" lon="5.56248">
        <ele>370.646576</ele>
        <time>2014-09-23T10:45:57Z</time>
      </trkpt>
      <trkpt lat="47.19162" lon="5.56208">
        <ele>369.627502</ele>
        <time>2014-09-23T10:46:17Z</time>
      </trkpt>
      <trkpt lat="47.19163" lon="5.56205">
        <ele>369.528046</ele>
        <time>2014-09-23T10:46:37Z</time>
      </trkpt>
      <trkpt lat="47.19163" lon="5.56205">
        <ele>369.528046</ele>
        <time>2014-09-23T10:46:57Z</time>
      </trkpt>
      <trkpt lat="47.19162" lon="5.56204">
        <ele>369.489899</ele>
        <time>2014-09-23T10:47:17Z</time>
      </trkpt>
      <trkpt lat="47.19162" lon="5.56204">
        <ele>369.489899</ele>
        <time>2014-09-23T10:47:36Z</time>
      </trkpt>
      <trkpt lat="47.19162" lon="5.56204">
        <ele>369.479889</ele>
        <time>2014-09-23T10:47:56Z</time>
      </trkpt>
      <trkpt lat="47.19159" lon="5.56204">
        <ele>369.49765</ele>
        <time>2014-09-23T10:48:16Z</time>
      </trkpt>
      <trkpt lat="47.19146" lon="5.56183">
        <ele>369.110962</ele>
        <time>2014-09-23T10:48:36Z</time>
      </trkpt>
      <trkpt lat="47.19138" lon="5.56166">
        <ele>368.709564</ele>
        <time>2014-09-23T10:48:56Z</time>
      </trkpt>
      <trkpt lat="47.19139" lon="5.56165">
        <ele>368.771423</ele>
        <time>2014-09-23T10:49:16Z</time>
      </trkpt>
      <trkpt lat="47.19139" lon="5.56165">
        <ele>368.771423</ele>
        <time>2014-09-23T10:49:36Z</time>
      </trkpt>
      <trkpt lat="47.19132" lon="5.56146">
        <ele>367.824524</ele>
        <time>2014-09-23T10:49:56Z</time>
      </trkpt>
      <trkpt lat="47.19116" lon="5.56117">
        <ele>366.624573</ele>
        <time>2014-09-23T10:50:16Z</time>
      </trkpt>
      <trkpt lat="47.191" lon="5.56087">
        <ele>366.264435</ele>
        <time>2014-09-23T10:50:36Z</time>
      </trkpt>
      <trkpt lat="47.19091" lon="5.56048">
        <ele>366.584137</ele>
        <time>2014-09-23T10:50:55Z</time>
      </trkpt>
      <trkpt lat="47.19075" lon="5.56017">
        <ele>366.731598</ele>
        <time>2014-09-23T10:51:15Z</time>
      </trkpt>
      <trkpt lat="47.19054" lon="5.5599">
        <ele>367.297485</ele>
        <time>2014-09-23T10:51:35Z</time>
      </trkpt>
      <trkpt lat="47.19034" lon="5.55963">
        <ele>367.981506</ele>
        <time>2014-09-23T10:51:55Z</time>
      </trkpt>
      <trkpt lat="47.19016" lon="5.55934">
        <ele>367.958832</ele>
        <time>2014-09-23T10:52:15Z</time>
      </trkpt>
      <trkpt lat="47.19" lon="5.55903">
        <ele>368.508209</ele>
        <time>2014-09-23T10:52:35Z</time>
      </trkpt>
      <trkpt lat="47.18986" lon="5.55872">
        <ele>368.867493</ele>
        <time>2014-09-23T10:52:55Z</time>
      </trkpt>
      <trkpt lat="47.18969" lon="5.55845">
        <ele>369.240234</ele>
        <time>2014-09-23T10:53:15Z</time>
      </trkpt>
      <trkpt lat="47.18953" lon="5.55816">
        <ele>369.91629</ele>
        <time>2014-09-23T10:53:35Z</time>
      </trkpt>
      <trkpt lat="47.18939" lon="5.55786">
        <ele>371.298309</ele>
        <time>2014-09-23T10:53:55Z</time>
      </trkpt>
      <trkpt lat="47.18928" lon="5.5576">
        <ele>372.936554</ele>
        <time>2014-09-23T10:54:15Z</time>
      </trkpt>
      <trkpt lat="47.18923" lon="5.5574">
        <ele>373.448944</ele>
        <time>2014-09-23T10:54:35Z</time>
      </trkpt>
      <trkpt lat="47.18905" lon="5.55719">
        <ele>374.439148</ele>
        <time>2014-09-23T10:54:55Z</time>
      </trkpt>
      <trkpt lat="47.1889" lon="5.55688">
        <ele>375.622406</ele>
        <time>2014-09-23T10:55:15Z</time>
      </trkpt>
      <trkpt lat="47.18884" lon="5.55648">
        <ele>375.340881</ele>
        <time>2014-09-23T10:55:35Z</time>
      </trkpt>
      <trkpt lat="47.18873" lon="5.55619">
        <ele>375.140869</ele>
        <time>2014-09-23T10:55:55Z</time>
      </trkpt>
      <trkpt lat="47.18859" lon="5.55583">
        <ele>375.118591</ele>
        <time>2014-09-23T10:56:15Z</time>
      </trkpt>
      <trkpt lat="47.18848" lon="5.55553">
        <ele>375.625</ele>
        <time>2014-09-23T10:56:35Z</time>
      </trkpt>
      <trkpt lat="47.18841" lon="5.55517">
        <ele>376</ele>
        <time>2014-09-23T10:56:55Z</time>
      </trkpt>
      <trkpt lat="47.1884" lon="5.55474">
        <ele>376</ele>
        <time>2014-09-23T10:57:15Z</time>
      </trkpt>
      <trkpt lat="47.18831" lon="5.55442">
        <ele>376</ele>
        <time>2014-09-23T10:57:35Z</time>
      </trkpt>
      <trkpt lat="47.18825" lon="5.5541">
        <ele>375.881226</ele>
        <time>2014-09-23T10:57:55Z</time>
      </trkpt>
      <trkpt lat="47.18822" lon="5.5537">
        <ele>375.647949</ele>
        <time>2014-09-23T10:58:15Z</time>
      </trkpt>
      <trkpt lat="47.18815" lon="5.55337">
        <ele>375.367493</ele>
        <time>2014-09-23T10:58:35Z</time>
      </trkpt>
      <trkpt lat="47.18802" lon="5.55302">
        <ele>375.10376</ele>
        <time>2014-09-23T10:58:55Z</time>
      </trkpt>
      <trkpt lat="47.18791" lon="5.55275">
        <ele>374.131805</ele>
        <time>2014-09-23T10:59:15Z</time>
      </trkpt>
      <trkpt lat="47.18779" lon="5.55242">
        <ele>373.095001</ele>
        <time>2014-09-23T10:59:35Z</time>
      </trkpt>
      <trkpt lat="47.18764" lon="5.55212">
        <ele>372.444946</ele>
        <time>2014-09-23T10:59:55Z</time>
      </trkpt>
      <trkpt lat="47.18756" lon="5.55184">
        <ele>371.1427</ele>
        <time>2014-09-23T11:00:15Z</time>
      </trkpt>
      <trkpt lat="47.1874" lon="5.55149">
        <ele>370.104614</ele>
        <time>2014-09-23T11:00:35Z</time>
      </trkpt>
      <trkpt lat="47.18725" lon="5.55116">
        <ele>369.362244</ele>
        <time>2014-09-23T11:00:55Z</time>
      </trkpt>
      <trkpt lat="47.18719" lon="5.55082">
        <ele>368.533661</ele>
        <time>2014-09-23T11:01:15Z</time>
      </trkpt>
      <trkpt lat="47.18705" lon="5.55047">
        <ele>366.48999</ele>
        <time>2014-09-23T11:01:35Z</time>
      </trkpt>
      <trkpt lat="47.1869" lon="5.55015">
        <ele>365.99649</ele>
        <time>2014-09-23T11:01:55Z</time>
      </trkpt>
      <trkpt lat="47.18681" lon="5.5498">
        <ele>366.122498</ele>
        <time>2014-09-23T11:02:15Z</time>
      </trkpt>
      <trkpt lat="47.1867" lon="5.54958">
        <ele>366.065826</ele>
        <time>2014-09-23T11:02:35Z</time>
      </trkpt>
      <trkpt lat="47.1867" lon="5.54958">
        <ele>366.065826</ele>
        <time>2014-09-23T11:02:55Z</time>
      </trkpt>
      <trkpt lat="47.18669" lon="5.54956">
        <ele>366.037537</ele>
        <time>2014-09-23T11:03:15Z</time>
      </trkpt>
      <trkpt lat="47.18674" lon="5.5495">
        <ele>365.816498</ele>
        <time>2014-09-23T11:03:35Z</time>
      </trkpt>
      <trkpt lat="47.18674" lon="5.5495">
        <ele>365.816498</ele>
        <time>2014-09-23T11:03:55Z</time>
      </trkpt>
      <trkpt lat="47.18675" lon="5.54949">
        <ele>365.787262</ele>
        <time>2014-09-23T11:04:15Z</time>
      </trkpt>
      <trkpt lat="47.18675" lon="5.54949">
        <ele>365.787262</ele>
        <time>2014-09-23T11:04:35Z</time>
      </trkpt>
      <trkpt lat="47.18675" lon="5.5495">
        <ele>365.792725</ele>
        <time>2014-09-23T11:04:55Z</time>
      </trkpt>
      <trkpt lat="47.18675" lon="5.5495">
        <ele>365.792725</ele>
        <time>2014-09-23T11:05:15Z</time>
      </trkpt>
      <trkpt lat="47.18676" lon="5.54948">
        <ele>365.717987</ele>
        <time>2014-09-23T11:05:35Z</time>
      </trkpt>
      <trkpt lat="47.18697" lon="5.54938">
        <ele>362.464203</ele>
        <time>2014-09-23T11:05:55Z</time>
      </trkpt>
      <trkpt lat="47.18702" lon="5.54935">
        <ele>361.43399</ele>
        <time>2014-09-23T11:06:15Z</time>
      </trkpt>
      <trkpt lat="47.18721" lon="5.5493">
        <ele>358.302673</ele>
        <time>2014-09-23T11:06:35Z</time>
      </trkpt>
      <trkpt lat="47.1873" lon="5.54956">
        <ele>357.786804</ele>
        <time>2014-09-23T11:06:55Z</time>
      </trkpt>
      <trkpt lat="47.18735" lon="5.54987">
        <ele>358.732422</ele>
        <time>2014-09-23T11:07:15Z</time>
      </trkpt>
      <trkpt lat="47.18744" lon="5.55013">
        <ele>358.736816</ele>
        <time>2014-09-23T11:07:35Z</time>
      </trkpt>
      <trkpt lat="47.18745" lon="5.5504">
        <ele>360.960358</ele>
        <time>2014-09-23T11:07:55Z</time>
      </trkpt>
      <trkpt lat="47.18749" lon="5.55065">
        <ele>362.744598</ele>
        <time>2014-09-23T11:08:15Z</time>
      </trkpt>
      <trkpt lat="47.18758" lon="5.55089">
        <ele>363.85379</ele>
        <time>2014-09-23T11:08:35Z</time>
      </trkpt>
      <trkpt lat="47.1877" lon="5.55106">
        <ele>364.468536</ele>
        <time>2014-09-23T11:08:55Z</time>
      </trkpt>
      <trkpt lat="47.18784" lon="5.55119">
        <ele>365.249603</ele>
        <time>2014-09-23T11:09:15Z</time>
      </trkpt>
      <trkpt lat="47.18796" lon="5.55128">
        <ele>365.639008</ele>
        <time>2014-09-23T11:09:35Z</time>
      </trkpt>
      <trkpt lat="47.18803" lon="5.55116">
        <ele>364.3237</ele>
        <time>2014-09-23T11:09:55Z</time>
      </trkpt>
      <trkpt lat="47.1881" lon="5.55103">
        <ele>362.915009</ele>
        <time>2014-09-23T11:10:15Z</time>
      </trkpt>
      <trkpt lat="47.18811" lon="5.55094">
        <ele>361.962646</ele>
        <time>2014-09-23T11:10:35Z</time>
      </trkpt>
      <trkpt lat="47.18802" lon="5.55079">
        <ele>360.215088</ele>
        <time>2014-09-23T11:10:55Z</time>
      </trkpt>
      <trkpt lat="47.18801" lon="5.55076">
        <ele>359.791046</ele>
        <time>2014-09-23T11:11:15Z</time>
      </trkpt>
      <trkpt lat="47.18802" lon="5.55072">
        <ele>359.17215</ele>
        <time>2014-09-23T11:11:35Z</time>
      </trkpt>
      <trkpt lat="47.18795" lon="5.55064">
        <ele>358.416016</ele>
        <time>2014-09-23T11:11:55Z</time>
      </trkpt>
      <trkpt lat="47.18776" lon="5.55041">
        <ele>356.340332</ele>
        <time>2014-09-23T11:12:15Z</time>
      </trkpt>
      <trkpt lat="47.18776" lon="5.55038">
        <ele>356.053619</ele>
        <time>2014-09-23T11:12:35Z</time>
      </trkpt>
      <trkpt lat="47.18776" lon="5.55038">
        <ele>356.053619</ele>
        <time>2014-09-23T11:12:55Z</time>
      </trkpt>
      <trkpt lat="47.18775" lon="5.55036">
        <ele>355.797607</ele>
        <time>2014-09-23T11:13:15Z</time>
      </trkpt>
      <trkpt lat="47.18775" lon="5.55036">
        <ele>355.797607</ele>
        <time>2014-09-23T11:13:35Z</time>
      </trkpt>
      <trkpt lat="47.18776" lon="5.55031">
        <ele>355.131836</ele>
        <time>2014-09-23T11:13:55Z</time>
      </trkpt>
      <trkpt lat="47.18772" lon="5.55026">
        <ele>354.706421</ele>
        <time>2014-09-23T11:14:15Z</time>
      </trkpt>
      <trkpt lat="47.18773" lon="5.55025">
        <ele>354.562073</ele>
        <time>2014-09-23T11:14:35Z</time>
      </trkpt>
      <trkpt lat="47.18773" lon="5.55025">
        <ele>354.562073</ele>
        <time>2014-09-23T11:14:55Z</time>
      </trkpt>
      <trkpt lat="47.18774" lon="5.55024">
        <ele>354.443573</ele>
        <time>2014-09-23T11:15:15Z</time>
      </trkpt>
      <trkpt lat="47.18774" lon="5.55023">
        <ele>354.332977</ele>
        <time>2014-09-23T11:15:35Z</time>
      </trkpt>
      <trkpt lat="47.18773" lon="5.55015">
        <ele>353.597046</ele>
        <time>2014-09-23T11:15:55Z</time>
      </trkpt>
      <trkpt lat="47.18773" lon="5.55015">
        <ele>353.597046</ele>
        <time>2014-09-23T11:16:15Z</time>
      </trkpt>
      <trkpt lat="47.18773" lon="5.55016">
        <ele>353.675476</ele>
        <time>2014-09-23T11:16:35Z</time>
      </trkpt>
      <trkpt lat="47.1877" lon="5.55011">
        <ele>353.543121</ele>
        <time>2014-09-23T11:16:55Z</time>
      </trkpt>
      <trkpt lat="47.1877" lon="5.55011">
        <ele>353.543121</ele>
        <time>2014-09-23T11:17:15Z</time>
      </trkpt>
      <trkpt lat="47.18768" lon="5.5501">
        <ele>353.65094</ele>
        <time>2014-09-23T11:17:35Z</time>
      </trkpt>
      <trkpt lat="47.18763" lon="5.55011">
        <ele>354.767822</ele>
        <time>2014-09-23T11:17:55Z</time>
      </trkpt>
      <trkpt lat="47.18751" lon="5.55004">
        <ele>356.673431</ele>
        <time>2014-09-23T11:18:15Z</time>
      </trkpt>
      <trkpt lat="47.18749" lon="5.55007">
        <ele>357.452148</ele>
        <time>2014-09-23T11:18:35Z</time>
      </trkpt>
      <trkpt lat="47.18749" lon="5.55007">
        <ele>357.452148</ele>
        <time>2014-09-23T11:18:55Z</time>
      </trkpt>
      <trkpt lat="47.18749" lon="5.55007">
        <ele>357.329193</ele>
        <time>2014-09-23T11:19:15Z</time>
      </trkpt>
      <trkpt lat="47.18749" lon="5.55007">
        <ele>357.329193</ele>
        <time>2014-09-23T11:19:35Z</time>
      </trkpt>
      <trkpt lat="47.18749" lon="5.55006">
        <ele>357.220062</ele>
        <time>2014-09-23T11:19:55Z</time>
      </trkpt>
      <trkpt lat="47.18742" lon="5.54991">
        <ele>357.638733</ele>
        <time>2014-09-23T11:20:15Z</time>
      </trkpt>
      <trkpt lat="47.18733" lon="5.54978">
        <ele>358.5672</ele>
        <time>2014-09-23T11:20:35Z</time>
      </trkpt>
      <trkpt lat="47.18725" lon="5.54957">
        <ele>358.781403</ele>
        <time>2014-09-23T11:20:55Z</time>
      </trkpt>
      <trkpt lat="47.1872" lon="5.54938">
        <ele>358.863007</ele>
        <time>2014-09-23T11:21:15Z</time>
      </trkpt>
      <trkpt lat="47.18705" lon="5.54942">
        <ele>361.383392</ele>
        <time>2014-09-23T11:21:35Z</time>
      </trkpt>
      <trkpt lat="47.18688" lon="5.54938">
        <ele>363.823547</ele>
        <time>2014-09-23T11:21:55Z</time>
      </trkpt>
      <trkpt lat="47.18678" lon="5.54957">
        <ele>366.050659</ele>
        <time>2014-09-23T11:22:15Z</time>
      </trkpt>
      <trkpt lat="47.1868" lon="5.54976">
        <ele>366.176392</ele>
        <time>2014-09-23T11:22:35Z</time>
      </trkpt>
      <trkpt lat="47.18682" lon="5.54987">
        <ele>366.040527</ele>
        <time>2014-09-23T11:22:44Z</time>
      </trkpt>
      <trkpt lat="47.18696" lon="5.55006">
        <ele>365.240997</ele>
        <time>2014-09-23T12:03:06Z</time>
      </trkpt>
      <trkpt lat="47.18692" lon="5.54997">
        <ele>365.249878</ele>
        <time>2014-09-23T12:03:26Z</time>
      </trkpt>
      <trkpt lat="47.18691" lon="5.54998">
        <ele>365.420074</ele>
        <time>2014-09-23T12:03:46Z</time>
      </trkpt>
      <trkpt lat="47.18686" lon="5.54996">
        <ele>365.842957</ele>
        <time>2014-09-23T12:04:06Z</time>
      </trkpt>
      <trkpt lat="47.18681" lon="5.54995">
        <ele>366.334076</ele>
        <time>2014-09-23T12:04:26Z</time>
      </trkpt>
      <trkpt lat="47.18678" lon="5.54993">
        <ele>366.599487</ele>
        <time>2014-09-23T12:04:46Z</time>
      </trkpt>
      <trkpt lat="47.18678" lon="5.54993">
        <ele>366.599487</ele>
        <time>2014-09-23T12:05:06Z</time>
      </trkpt>
      <trkpt lat="47.18678" lon="5.54993">
        <ele>366.606262</ele>
        <time>2014-09-23T12:05:26Z</time>
      </trkpt>
      <trkpt lat="47.18678" lon="5.54994">
        <ele>366.606995</ele>
        <time>2014-09-23T12:05:46Z</time>
      </trkpt>
      <trkpt lat="47.18677" lon="5.54992">
        <ele>366.565948</ele>
        <time>2014-09-23T12:06:06Z</time>
      </trkpt>
      <trkpt lat="47.18676" lon="5.5498">
        <ele>366.386566</ele>
        <time>2014-09-23T12:06:26Z</time>
      </trkpt>
      <trkpt lat="47.18678" lon="5.54947">
        <ele>365.59433</ele>
        <time>2014-09-23T12:06:46Z</time>
      </trkpt>
      <trkpt lat="47.18671" lon="5.54916">
        <ele>364.091705</ele>
        <time>2014-09-23T12:07:06Z</time>
      </trkpt>
      <trkpt lat="47.18664" lon="5.54898">
        <ele>363.642487</ele>
        <time>2014-09-23T12:07:26Z</time>
      </trkpt>
      <trkpt lat="47.18657" lon="5.54876">
        <ele>363.090851</ele>
        <time>2014-09-23T12:07:46Z</time>
      </trkpt>
      <trkpt lat="47.18599" lon="5.54782">
        <ele>362.251038</ele>
        <time>2014-09-23T12:08:46Z</time>
      </trkpt>
      <trkpt lat="47.18582" lon="5.54753">
        <ele>361.750305</ele>
        <time>2014-09-23T12:09:06Z</time>
      </trkpt>
      <trkpt lat="47.1857" lon="5.54723">
        <ele>361.089264</ele>
        <time>2014-09-23T12:09:26Z</time>
      </trkpt>
      <trkpt lat="47.18534" lon="5.54662">
        <ele>360.399292</ele>
        <time>2014-09-23T12:10:06Z</time>
      </trkpt>
      <trkpt lat="47.18517" lon="5.54637">
        <ele>360.447479</ele>
        <time>2014-09-23T12:10:26Z</time>
      </trkpt>
      <trkpt lat="47.18501" lon="5.54611">
        <ele>360.62561</ele>
        <time>2014-09-23T12:10:46Z</time>
      </trkpt>
      <trkpt lat="47.18483" lon="5.54587">
        <ele>360.110291</ele>
        <time>2014-09-23T12:11:06Z</time>
      </trkpt>
      <trkpt lat="47.18463" lon="5.54561">
        <ele>360.320007</ele>
        <time>2014-09-23T12:11:26Z</time>
      </trkpt>
      <trkpt lat="47.18446" lon="5.54536">
        <ele>359.610107</ele>
        <time>2014-09-23T12:11:46Z</time>
      </trkpt>
      <trkpt lat="47.18427" lon="5.54515">
        <ele>358.944946</ele>
        <time>2014-09-23T12:12:06Z</time>
      </trkpt>
      <trkpt lat="47.18404" lon="5.54497">
        <ele>358.639984</ele>
        <time>2014-09-23T12:12:26Z</time>
      </trkpt>
      <trkpt lat="47.18383" lon="5.54472">
        <ele>359.954987</ele>
        <time>2014-09-23T12:12:46Z</time>
      </trkpt>
      <trkpt lat="47.18365" lon="5.54458">
        <ele>359.231659</ele>
        <time>2014-09-23T12:13:06Z</time>
      </trkpt>
      <trkpt lat="47.18343" lon="5.54436">
        <ele>359.035004</ele>
        <time>2014-09-23T12:13:26Z</time>
      </trkpt>
      <trkpt lat="47.18321" lon="5.54415">
        <ele>359.674988</ele>
        <time>2014-09-23T12:13:46Z</time>
      </trkpt>
      <trkpt lat="47.183" lon="5.54398">
        <ele>359.922668</ele>
        <time>2014-09-23T12:14:06Z</time>
      </trkpt>
      <trkpt lat="47.18278" lon="5.54381">
        <ele>360.36026</ele>
        <time>2014-09-23T12:14:26Z</time>
      </trkpt>
      <trkpt lat="47.18257" lon="5.54365">
        <ele>361.135193</ele>
        <time>2014-09-23T12:14:46Z</time>
      </trkpt>
      <trkpt lat="47.18234" lon="5.54345">
        <ele>361.818756</ele>
        <time>2014-09-23T12:15:06Z</time>
      </trkpt>
      <trkpt lat="47.18212" lon="5.54327">
        <ele>361.973572</ele>
        <time>2014-09-23T12:15:26Z</time>
      </trkpt>
      <trkpt lat="47.18193" lon="5.54309">
        <ele>361.870789</ele>
        <time>2014-09-23T12:15:46Z</time>
      </trkpt>
      <trkpt lat="47.18181" lon="5.54296">
        <ele>361.772156</ele>
        <time>2014-09-23T12:16:06Z</time>
      </trkpt>
      <trkpt lat="47.18181" lon="5.54296">
        <ele>361.772156</ele>
        <time>2014-09-23T12:16:26Z</time>
      </trkpt>
      <trkpt lat="47.18181" lon="5.54295">
        <ele>361.767792</ele>
        <time>2014-09-23T12:16:46Z</time>
      </trkpt>
      <trkpt lat="47.18181" lon="5.54295">
        <ele>361.767792</ele>
        <time>2014-09-23T12:17:06Z</time>
      </trkpt>
      <trkpt lat="47.1818" lon="5.54294">
        <ele>361.767975</ele>
        <time>2014-09-23T12:17:26Z</time>
      </trkpt>
      <trkpt lat="47.18179" lon="5.54294">
        <ele>361.757935</ele>
        <time>2014-09-23T12:17:46Z</time>
      </trkpt>
      <trkpt lat="47.18179" lon="5.54294">
        <ele>361.757935</ele>
        <time>2014-09-23T12:18:06Z</time>
      </trkpt>
      <trkpt lat="47.18179" lon="5.54294">
        <ele>361.759491</ele>
        <time>2014-09-23T12:18:26Z</time>
      </trkpt>
      <trkpt lat="47.18179" lon="5.54294">
        <ele>361.759491</ele>
        <time>2014-09-23T12:18:46Z</time>
      </trkpt>
      <trkpt lat="47.18179" lon="5.54294">
        <ele>361.754883</ele>
        <time>2014-09-23T12:19:06Z</time>
      </trkpt>
      <trkpt lat="47.18162" lon="5.54273">
        <ele>361.850372</ele>
        <time>2014-09-23T12:19:26Z</time>
      </trkpt>
      <trkpt lat="47.18146" lon="5.5424">
        <ele>361.767639</ele>
        <time>2014-09-23T12:19:46Z</time>
      </trkpt>
      <trkpt lat="47.1813" lon="5.54208">
        <ele>361.731812</ele>
        <time>2014-09-23T12:20:06Z</time>
      </trkpt>
      <trkpt lat="47.18119" lon="5.54179">
        <ele>361.87439</ele>
        <time>2014-09-23T12:20:26Z</time>
      </trkpt>
      <trkpt lat="47.18106" lon="5.54152">
        <ele>362.143188</ele>
        <time>2014-09-23T12:20:46Z</time>
      </trkpt>
      <trkpt lat="47.18094" lon="5.54123">
        <ele>362.526459</ele>
        <time>2014-09-23T12:21:06Z</time>
      </trkpt>
      <trkpt lat="47.18077" lon="5.54091">
        <ele>363.385101</ele>
        <time>2014-09-23T12:21:26Z</time>
      </trkpt>
      <trkpt lat="47.18059" lon="5.54062">
        <ele>363.641754</ele>
        <time>2014-09-23T12:21:46Z</time>
      </trkpt>
      <trkpt lat="47.18048" lon="5.54034">
        <ele>363.11499</ele>
        <time>2014-09-23T12:22:06Z</time>
      </trkpt>
      <trkpt lat="47.18038" lon="5.53992">
        <ele>362.838928</ele>
        <time>2014-09-23T12:22:26Z</time>
      </trkpt>
      <trkpt lat="47.1802" lon="5.53965">
        <ele>362.337494</ele>
        <time>2014-09-23T12:22:46Z</time>
      </trkpt>
      <trkpt lat="47.18007" lon="5.53937">
        <ele>362.515503</ele>
        <time>2014-09-23T12:23:06Z</time>
      </trkpt>
      <trkpt lat="47.17993" lon="5.53904">
        <ele>364.039703</ele>
        <time>2014-09-23T12:23:26Z</time>
      </trkpt>
      <trkpt lat="47.17979" lon="5.53879">
        <ele>364.399475</ele>
        <time>2014-09-23T12:23:46Z</time>
      </trkpt>
      <trkpt lat="47.17964" lon="5.53852">
        <ele>364.795074</ele>
        <time>2014-09-23T12:24:06Z</time>
      </trkpt>
      <trkpt lat="47.17948" lon="5.53826">
        <ele>364.451813</ele>
        <time>2014-09-23T12:24:26Z</time>
      </trkpt>
      <trkpt lat="47.1793" lon="5.5381">
        <ele>362.96756</ele>
        <time>2014-09-23T12:24:46Z</time>
      </trkpt>
      <trkpt lat="47.17912" lon="5.53789">
        <ele>363.203705</ele>
        <time>2014-09-23T12:25:06Z</time>
      </trkpt>
      <trkpt lat="47.17893" lon="5.53773">
        <ele>362.81601</ele>
        <time>2014-09-23T12:25:26Z</time>
      </trkpt>
      <trkpt lat="47.17872" lon="5.53757">
        <ele>362.289063</ele>
        <time>2014-09-23T12:25:46Z</time>
      </trkpt>
      <trkpt lat="47.17855" lon="5.5374">
        <ele>362.970001</ele>
        <time>2014-09-23T12:26:06Z</time>
      </trkpt>
      <trkpt lat="47.17804" lon="5.537">
        <ele>364.778748</ele>
        <time>2014-09-23T12:26:46Z</time>
      </trkpt>
      <trkpt lat="47.17784" lon="5.53679">
        <ele>364.152496</ele>
        <time>2014-09-23T12:27:06Z</time>
      </trkpt>
      <trkpt lat="47.1776" lon="5.53658">
        <ele>363.384338</ele>
        <time>2014-09-23T12:27:26Z</time>
      </trkpt>
      <trkpt lat="47.17737" lon="5.53639">
        <ele>362.225006</ele>
        <time>2014-09-23T12:27:46Z</time>
      </trkpt>
      <trkpt lat="47.17716" lon="5.53621">
        <ele>360.263763</ele>
        <time>2014-09-23T12:28:06Z</time>
      </trkpt>
      <trkpt lat="47.17695" lon="5.53595">
        <ele>359.596863</ele>
        <time>2014-09-23T12:28:26Z</time>
      </trkpt>
      <trkpt lat="47.17677" lon="5.53569">
        <ele>359.83075</ele>
        <time>2014-09-23T12:28:46Z</time>
      </trkpt>
      <trkpt lat="47.17658" lon="5.5354">
        <ele>359.355377</ele>
        <time>2014-09-23T12:29:06Z</time>
      </trkpt>
      <trkpt lat="47.17643" lon="5.53513">
        <ele>359.749542</ele>
        <time>2014-09-23T12:29:26Z</time>
      </trkpt>
      <trkpt lat="47.17626" lon="5.53482">
        <ele>358.885376</ele>
        <time>2014-09-23T12:29:46Z</time>
      </trkpt>
      <trkpt lat="47.17611" lon="5.53453">
        <ele>358.077911</ele>
        <time>2014-09-23T12:30:06Z</time>
      </trkpt>
      <trkpt lat="47.17594" lon="5.53427">
        <ele>357.289246</ele>
        <time>2014-09-23T12:30:26Z</time>
      </trkpt>
      <trkpt lat="47.17582" lon="5.53398">
        <ele>355.451385</ele>
        <time>2014-09-23T12:30:46Z</time>
      </trkpt>
      <trkpt lat="47.17567" lon="5.53372">
        <ele>355.110321</ele>
        <time>2014-09-23T12:31:05Z</time>
      </trkpt>
      <trkpt lat="47.17557" lon="5.53334">
        <ele>354.652405</ele>
        <time>2014-09-23T12:31:26Z</time>
      </trkpt>
      <trkpt lat="47.17549" lon="5.53298">
        <ele>354.341827</ele>
        <time>2014-09-23T12:31:46Z</time>
      </trkpt>
      <trkpt lat="47.17543" lon="5.53262">
        <ele>355.582489</ele>
        <time>2014-09-23T12:32:06Z</time>
      </trkpt>
      <trkpt lat="47.17537" lon="5.53228">
        <ele>356.238586</ele>
        <time>2014-09-23T12:32:26Z</time>
      </trkpt>
      <trkpt lat="47.1753" lon="5.53197">
        <ele>355.584686</ele>
        <time>2014-09-23T12:32:46Z</time>
      </trkpt>
      <trkpt lat="47.17522" lon="5.53159">
        <ele>354.986389</ele>
        <time>2014-09-23T12:33:06Z</time>
      </trkpt>
      <trkpt lat="47.17516" lon="5.53119">
        <ele>353.650055</ele>
        <time>2014-09-23T12:33:26Z</time>
      </trkpt>
      <trkpt lat="47.17514" lon="5.53077">
        <ele>352.640015</ele>
        <time>2014-09-23T12:33:46Z</time>
      </trkpt>
      <trkpt lat="47.17512" lon="5.53043">
        <ele>352.11499</ele>
        <time>2014-09-23T12:34:06Z</time>
      </trkpt>
      <trkpt lat="47.17509" lon="5.53019">
        <ele>352</ele>
        <time>2014-09-23T12:34:26Z</time>
      </trkpt>
      <trkpt lat="47.17509" lon="5.53019">
        <ele>352</ele>
        <time>2014-09-23T12:34:46Z</time>
      </trkpt>
      <trkpt lat="47.17508" lon="5.53018">
        <ele>352</ele>
        <time>2014-09-23T12:35:06Z</time>
      </trkpt>
      <trkpt lat="47.17508" lon="5.53018">
        <ele>352</ele>
        <time>2014-09-23T12:35:26Z</time>
      </trkpt>
      <trkpt lat="47.17508" lon="5.53018">
        <ele>352</ele>
        <time>2014-09-23T12:35:46Z</time>
      </trkpt>
      <trkpt lat="47.17508" lon="5.53019">
        <ele>352</ele>
        <time>2014-09-23T12:36:06Z</time>
      </trkpt>
      <trkpt lat="47.17508" lon="5.53019">
        <ele>352</ele>
        <time>2014-09-23T12:36:26Z</time>
      </trkpt>
      <trkpt lat="47.17508" lon="5.53019">
        <ele>352</ele>
        <time>2014-09-23T12:36:46Z</time>
      </trkpt>
      <trkpt lat="47.17508" lon="5.53019">
        <ele>352</ele>
        <time>2014-09-23T12:37:06Z</time>
      </trkpt>
      <trkpt lat="47.17508" lon="5.53019">
        <ele>352</ele>
        <time>2014-09-23T12:37:26Z</time>
      </trkpt>
      <trkpt lat="47.17508" lon="5.53019">
        <ele>352</ele>
        <time>2014-09-23T12:37:46Z</time>
      </trkpt>
      <trkpt lat="47.17508" lon="5.5302">
        <ele>352</ele>
        <time>2014-09-23T12:38:06Z</time>
      </trkpt>
      <trkpt lat="47.17508" lon="5.53018">
        <ele>352</ele>
        <time>2014-09-23T12:38:26Z</time>
      </trkpt>
      <trkpt lat="47.17526" lon="5.53002">
        <ele>351.459991</ele>
        <time>2014-09-23T12:38:46Z</time>
      </trkpt>
      <trkpt lat="47.17547" lon="5.52992">
        <ele>350.095001</ele>
        <time>2014-09-23T12:39:06Z</time>
      </trkpt>
      <trkpt lat="47.17568" lon="5.52975">
        <ele>348.656189</ele>
        <time>2014-09-23T12:39:26Z</time>
      </trkpt>
      <trkpt lat="47.1759" lon="5.5297">
        <ele>346.470001</ele>
        <time>2014-09-23T12:39:46Z</time>
      </trkpt>
      <trkpt lat="47.17611" lon="5.52976">
        <ele>344.803772</ele>
        <time>2014-09-23T12:40:06Z</time>
      </trkpt>
      <trkpt lat="47.1763" lon="5.52989">
        <ele>342.869995</ele>
        <time>2014-09-23T12:40:26Z</time>
      </trkpt>
      <trkpt lat="47.17647" lon="5.53">
        <ele>341.178741</ele>
        <time>2014-09-23T12:40:46Z</time>
      </trkpt>
      <trkpt lat="47.17671" lon="5.53006">
        <ele>338.792267</ele>
        <time>2014-09-23T12:41:06Z</time>
      </trkpt>
      <trkpt lat="47.17692" lon="5.53011">
        <ele>336.566101</ele>
        <time>2014-09-23T12:41:26Z</time>
      </trkpt>
      <trkpt lat="47.17705" lon="5.52997">
        <ele>335.299988</ele>
        <time>2014-09-23T12:41:46Z</time>
      </trkpt>
      <trkpt lat="47.17714" lon="5.52976">
        <ele>334.015381</ele>
        <time>2014-09-23T12:42:06Z</time>
      </trkpt>
      <trkpt lat="47.17714" lon="5.52954">
        <ele>332.705902</ele>
        <time>2014-09-23T12:42:26Z</time>
      </trkpt>
      <trkpt lat="47.17715" lon="5.52941">
        <ele>331.891052</ele>
        <time>2014-09-23T12:42:46Z</time>
      </trkpt>
      <trkpt lat="47.17723" lon="5.52918">
        <ele>330.124237</ele>
        <time>2014-09-23T12:43:06Z</time>
      </trkpt>
      <trkpt lat="47.17725" lon="5.52884">
        <ele>332.384338</ele>
        <time>2014-09-23T12:43:26Z</time>
      </trkpt>
      <trkpt lat="47.17733" lon="5.52856">
        <ele>334.832794</ele>
        <time>2014-09-23T12:43:46Z</time>
      </trkpt>
      <trkpt lat="47.17747" lon="5.52829">
        <ele>338.986237</ele>
        <time>2014-09-23T12:44:06Z</time>
      </trkpt>
      <trkpt lat="47.17761" lon="5.528">
        <ele>343.111053</ele>
        <time>2014-09-23T12:44:26Z</time>
      </trkpt>
      <trkpt lat="47.17774" lon="5.5278">
        <ele>345.145782</ele>
        <time>2014-09-23T12:44:46Z</time>
      </trkpt>
      <trkpt lat="47.17785" lon="5.5276">
        <ele>345.725525</ele>
        <time>2014-09-23T12:45:06Z</time>
      </trkpt>
      <trkpt lat="47.17792" lon="5.52732">
        <ele>346.606201</ele>
        <time>2014-09-23T12:45:26Z</time>
      </trkpt>
      <trkpt lat="47.17798" lon="5.52702">
        <ele>345.794586</ele>
        <time>2014-09-23T12:45:46Z</time>
      </trkpt>
      <trkpt lat="47.17804" lon="5.52674">
        <ele>344.281403</ele>
        <time>2014-09-23T12:46:06Z</time>
      </trkpt>
      <trkpt lat="47.17811" lon="5.5265">
        <ele>342.957489</ele>
        <time>2014-09-23T12:46:26Z</time>
      </trkpt>
      <trkpt lat="47.17818" lon="5.52632">
        <ele>341.637512</ele>
        <time>2014-09-23T12:46:46Z</time>
      </trkpt>
      <trkpt lat="47.17825" lon="5.52606">
        <ele>339.42749</ele>
        <time>2014-09-23T12:47:06Z</time>
      </trkpt>
      <trkpt lat="47.17836" lon="5.52576">
        <ele>336.920013</ele>
        <time>2014-09-23T12:47:26Z</time>
      </trkpt>
      <trkpt lat="47.17844" lon="5.52556">
        <ele>335.107513</ele>
        <time>2014-09-23T12:47:46Z</time>
      </trkpt>
      <trkpt lat="47.17849" lon="5.52533">
        <ele>332.607239</ele>
        <time>2014-09-23T12:48:06Z</time>
      </trkpt>
      <trkpt lat="47.17857" lon="5.52503">
        <ele>329.464111</ele>
        <time>2014-09-23T12:48:26Z</time>
      </trkpt>
      <trkpt lat="47.17861" lon="5.5248">
        <ele>327.185577</ele>
        <time>2014-09-23T12:48:46Z</time>
      </trkpt>
      <trkpt lat="47.17866" lon="5.52465">
        <ele>325.74649</ele>
        <time>2014-09-23T12:49:06Z</time>
      </trkpt>
      <trkpt lat="47.17875" lon="5.52431">
        <ele>322.144012</ele>
        <time>2014-09-23T12:49:26Z</time>
      </trkpt>
      <trkpt lat="47.17888" lon="5.52403">
        <ele>318.187775</ele>
        <time>2014-09-23T12:49:46Z</time>
      </trkpt>
      <trkpt lat="47.17901" lon="5.52375">
        <ele>317.475647</ele>
        <time>2014-09-23T12:50:06Z</time>
      </trkpt>
      <trkpt lat="47.17908" lon="5.52352">
        <ele>317.735443</ele>
        <time>2014-09-23T12:50:26Z</time>
      </trkpt>
      <trkpt lat="47.17917" lon="5.52324">
        <ele>317.602509</ele>
        <time>2014-09-23T12:50:46Z</time>
      </trkpt>
      <trkpt lat="47.17925" lon="5.52302">
        <ele>317.269989</ele>
        <time>2014-09-23T12:51:06Z</time>
      </trkpt>
      <trkpt lat="47.17936" lon="5.52277">
        <ele>316.67749</ele>
        <time>2014-09-23T12:51:26Z</time>
      </trkpt>
      <trkpt lat="47.17943" lon="5.52258">
        <ele>316.750397</ele>
        <time>2014-09-23T12:51:46Z</time>
      </trkpt>
      <trkpt lat="47.17943" lon="5.52253">
        <ele>317.021271</ele>
        <time>2014-09-23T12:52:06Z</time>
      </trkpt>
      <trkpt lat="47.17965" lon="5.5218">
        <ele>323.983398</ele>
        <time>2014-09-23T12:52:46Z</time>
      </trkpt>
      <trkpt lat="47.17976" lon="5.5216">
        <ele>326.423157</ele>
        <time>2014-09-23T12:53:06Z</time>
      </trkpt>
      <trkpt lat="47.17985" lon="5.52137">
        <ele>328.680695</ele>
        <time>2014-09-23T12:53:26Z</time>
      </trkpt>
      <trkpt lat="47.17985" lon="5.52137">
        <ele>328.680695</ele>
        <time>2014-09-23T12:53:46Z</time>
      </trkpt>
      <trkpt lat="47.17985" lon="5.52137">
        <ele>328.742188</ele>
        <time>2014-09-23T12:54:06Z</time>
      </trkpt>
      <trkpt lat="47.17985" lon="5.52137">
        <ele>328.742188</ele>
        <time>2014-09-23T12:54:26Z</time>
      </trkpt>
      <trkpt lat="47.17985" lon="5.52137">
        <ele>328.735046</ele>
        <time>2014-09-23T12:54:46Z</time>
      </trkpt>
      <trkpt lat="47.17985" lon="5.52137">
        <ele>328.735046</ele>
        <time>2014-09-23T12:55:06Z</time>
      </trkpt>
      <trkpt lat="47.17985" lon="5.52134">
        <ele>328.906464</ele>
        <time>2014-09-23T12:55:26Z</time>
      </trkpt>
      <trkpt lat="47.17985" lon="5.52134">
        <ele>328.906464</ele>
        <time>2014-09-23T12:55:46Z</time>
      </trkpt>
      <trkpt lat="47.17985" lon="5.52135">
        <ele>328.89801</ele>
        <time>2014-09-23T12:56:06Z</time>
      </trkpt>
      <trkpt lat="47.17989" lon="5.52137">
        <ele>328.994873</ele>
        <time>2014-09-23T12:56:46Z</time>
      </trkpt>
      <trkpt lat="47.17991" lon="5.5214">
        <ele>328.874664</ele>
        <time>2014-09-23T12:57:06Z</time>
      </trkpt>
      <trkpt lat="47.17991" lon="5.52133">
        <ele>329.519958</ele>
        <time>2014-09-23T12:57:26Z</time>
      </trkpt>
      <trkpt lat="47.17991" lon="5.52133">
        <ele>329.519958</ele>
        <time>2014-09-23T12:57:46Z</time>
      </trkpt>
      <trkpt lat="47.17991" lon="5.52132">
        <ele>329.557617</ele>
        <time>2014-09-23T12:58:06Z</time>
      </trkpt>
      <trkpt lat="47.17991" lon="5.52132">
        <ele>329.557617</ele>
        <time>2014-09-23T12:58:26Z</time>
      </trkpt>
      <trkpt lat="47.17997" lon="5.52141">
        <ele>329.286713</ele>
        <time>2014-09-23T12:58:46Z</time>
      </trkpt>
      <trkpt lat="47.18021" lon="5.52157">
        <ele>330.178406</ele>
        <time>2014-09-23T12:59:06Z</time>
      </trkpt>
      <trkpt lat="47.18173" lon="5.52429">
        <ele>310.333008</ele>
        <time>2014-09-23T13:01:46Z</time>
      </trkpt>
      <trkpt lat="47.18183" lon="5.52441">
        <ele>311.283112</ele>
        <time>2014-09-23T13:02:06Z</time>
      </trkpt>
      <trkpt lat="47.18189" lon="5.52456">
        <ele>311.488434</ele>
        <time>2014-09-23T13:02:26Z</time>
      </trkpt>
      <trkpt lat="47.18195" lon="5.52471">
        <ele>311.901093</ele>
        <time>2014-09-23T13:02:46Z</time>
      </trkpt>
      <trkpt lat="47.18211" lon="5.525">
        <ele>311.230377</ele>
        <time>2014-09-23T13:03:06Z</time>
      </trkpt>
      <trkpt lat="47.18224" lon="5.52521">
        <ele>308.681366</ele>
        <time>2014-09-23T13:03:26Z</time>
      </trkpt>
      <trkpt lat="47.18233" lon="5.52541">
        <ele>305.598358</ele>
        <time>2014-09-23T13:03:46Z</time>
      </trkpt>
      <trkpt lat="47.18241" lon="5.52553">
        <ele>303.98938</ele>
        <time>2014-09-23T13:04:06Z</time>
      </trkpt>
      <trkpt lat="47.18248" lon="5.52564">
        <ele>302.505615</ele>
        <time>2014-09-23T13:04:26Z</time>
      </trkpt>
      <trkpt lat="47.18252" lon="5.52571">
        <ele>300.877991</ele>
        <time>2014-09-23T13:04:46Z</time>
      </trkpt>
      <trkpt lat="47.18262" lon="5.52592">
        <ele>294.300598</ele>
        <time>2014-09-23T13:05:06Z</time>
      </trkpt>
      <trkpt lat="47.18276" lon="5.52603">
        <ele>288.517212</ele>
        <time>2014-09-23T13:05:26Z</time>
      </trkpt>
      <trkpt lat="47.18283" lon="5.52612">
        <ele>284.305786</ele>
        <time>2014-09-23T13:05:46Z</time>
      </trkpt>
      <trkpt lat="47.18297" lon="5.52628">
        <ele>280.903137</ele>
        <time>2014-09-23T13:06:06Z</time>
      </trkpt>
      <trkpt lat="47.18305" lon="5.52659">
        <ele>287.632507</ele>
        <time>2014-09-23T13:06:26Z</time>
      </trkpt>
      <trkpt lat="47.18308" lon="5.52663">
        <ele>288.27124</ele>
        <time>2014-09-23T13:06:46Z</time>
      </trkpt>
      <trkpt lat="47.18313" lon="5.52666">
        <ele>288.008453</ele>
        <time>2014-09-23T13:07:06Z</time>
      </trkpt>
      <trkpt lat="47.18327" lon="5.52666">
        <ele>285.559692</ele>
        <time>2014-09-23T13:07:26Z</time>
      </trkpt>
      <trkpt lat="47.18338" lon="5.52658">
        <ele>282.190552</ele>
        <time>2014-09-23T13:07:46Z</time>
      </trkpt>
      <trkpt lat="47.1834" lon="5.52659">
        <ele>282.567963</ele>
        <time>2014-09-23T13:08:06Z</time>
      </trkpt>
      <trkpt lat="47.18341" lon="5.52656">
        <ele>282.021637</ele>
        <time>2014-09-23T13:08:26Z</time>
      </trkpt>
      <trkpt lat="47.18361" lon="5.52647">
        <ele>281.442993</ele>
        <time>2014-09-23T13:08:46Z</time>
      </trkpt>
      <trkpt lat="47.1839" lon="5.5265">
        <ele>283.77774</ele>
        <time>2014-09-23T13:09:06Z</time>
      </trkpt>
      <trkpt lat="47.18404" lon="5.52655">
        <ele>285.274292</ele>
        <time>2014-09-23T13:09:26Z</time>
      </trkpt>
      <trkpt lat="47.18414" lon="5.52652">
        <ele>284.225494</ele>
        <time>2014-09-23T13:09:46Z</time>
      </trkpt>
      <trkpt lat="47.18433" lon="5.52643">
        <ele>280.487</ele>
        <time>2014-09-23T13:10:06Z</time>
      </trkpt>
      <trkpt lat="47.18454" lon="5.52635">
        <ele>275.817505</ele>
        <time>2014-09-23T13:10:26Z</time>
      </trkpt>
      <trkpt lat="47.18468" lon="5.52627">
        <ele>273.287567</ele>
        <time>2014-09-23T13:10:46Z</time>
      </trkpt>
      <trkpt lat="47.18489" lon="5.52628">
        <ele>276.361084</ele>
        <time>2014-09-23T13:11:06Z</time>
      </trkpt>
      <trkpt lat="47.18503" lon="5.5263">
        <ele>279.901245</ele>
        <time>2014-09-23T13:11:26Z</time>
      </trkpt>
      <trkpt lat="47.18514" lon="5.52617">
        <ele>278.917938</ele>
        <time>2014-09-23T13:11:46Z</time>
      </trkpt>
      <trkpt lat="47.18535" lon="5.52611">
        <ele>280.765503</ele>
        <time>2014-09-23T13:12:06Z</time>
      </trkpt>
      <trkpt lat="47.18546" lon="5.52598">
        <ele>278.585449</ele>
        <time>2014-09-23T13:12:26Z</time>
      </trkpt>
      <trkpt lat="47.18558" lon="5.52595">
        <ele>279.510529</ele>
        <time>2014-09-23T13:12:46Z</time>
      </trkpt>
      <trkpt lat="47.18568" lon="5.52583">
        <ele>276.817444</ele>
        <time>2014-09-23T13:13:06Z</time>
      </trkpt>
      <trkpt lat="47.18586" lon="5.52572">
        <ele>276.857635</ele>
        <time>2014-09-23T13:13:26Z</time>
      </trkpt>
      <trkpt lat="47.18602" lon="5.52559">
        <ele>277.783295</ele>
        <time>2014-09-23T13:13:46Z</time>
      </trkpt>
      <trkpt lat="47.18613" lon="5.52552">
        <ele>277.644867</ele>
        <time>2014-09-23T13:14:06Z</time>
      </trkpt>
      <trkpt lat="47.18628" lon="5.52544">
        <ele>278.991974</ele>
        <time>2014-09-23T13:14:26Z</time>
      </trkpt>
      <trkpt lat="47.18639" lon="5.52527">
        <ele>276.067993</ele>
        <time>2014-09-23T13:14:46Z</time>
      </trkpt>
      <trkpt lat="47.18655" lon="5.52514">
        <ele>275.333191</ele>
        <time>2014-09-23T13:15:06Z</time>
      </trkpt>
      <trkpt lat="47.18674" lon="5.52503">
        <ele>276.798798</ele>
        <time>2014-09-23T13:15:26Z</time>
      </trkpt>
      <trkpt lat="47.1869" lon="5.52485">
        <ele>274.685059</ele>
        <time>2014-09-23T13:15:46Z</time>
      </trkpt>
      <trkpt lat="47.18705" lon="5.52474">
        <ele>272.228699</ele>
        <time>2014-09-23T13:16:06Z</time>
      </trkpt>
      <trkpt lat="47.1872" lon="5.52464">
        <ele>270.713074</ele>
        <time>2014-09-23T13:16:26Z</time>
      </trkpt>
      <trkpt lat="47.18736" lon="5.52454">
        <ele>269.677002</ele>
        <time>2014-09-23T13:16:46Z</time>
      </trkpt>
      <trkpt lat="47.18744" lon="5.52443">
        <ele>267.942688</ele>
        <time>2014-09-23T13:17:06Z</time>
      </trkpt>
      <trkpt lat="47.1875" lon="5.52441">
        <ele>268.443695</ele>
        <time>2014-09-23T13:17:26Z</time>
      </trkpt>
      <trkpt lat="47.18759" lon="5.52432">
        <ele>267.007782</ele>
        <time>2014-09-23T13:17:46Z</time>
      </trkpt>
      <trkpt lat="47.18771" lon="5.52427">
        <ele>266.498413</ele>
        <time>2014-09-23T13:18:06Z</time>
      </trkpt>
      <trkpt lat="47.18785" lon="5.52421">
        <ele>265.209503</ele>
        <time>2014-09-23T13:18:26Z</time>
      </trkpt>
      <trkpt lat="47.18793" lon="5.52408">
        <ele>260.544281</ele>
        <time>2014-09-23T13:18:46Z</time>
      </trkpt>
      <trkpt lat="47.18808" lon="5.52408">
        <ele>261.877655</ele>
        <time>2014-09-23T13:19:06Z</time>
      </trkpt>
      <trkpt lat="47.18821" lon="5.524">
        <ele>260.344971</ele>
        <time>2014-09-23T13:19:26Z</time>
      </trkpt>
      <trkpt lat="47.18838" lon="5.52389">
        <ele>258.236115</ele>
        <time>2014-09-23T13:19:46Z</time>
      </trkpt>
      <trkpt lat="47.18854" lon="5.5238">
        <ele>257.857697</ele>
        <time>2014-09-23T13:20:06Z</time>
      </trkpt>
      <trkpt lat="47.18866" lon="5.52376">
        <ele>257.461029</ele>
        <time>2014-09-23T13:20:26Z</time>
      </trkpt>
      <trkpt lat="47.18883" lon="5.52371">
        <ele>256.431244</ele>
        <time>2014-09-23T13:20:46Z</time>
      </trkpt>
      <trkpt lat="47.18898" lon="5.52362">
        <ele>253.305206</ele>
        <time>2014-09-23T13:21:06Z</time>
      </trkpt>
      <trkpt lat="47.18908" lon="5.52356">
        <ele>251.160019</ele>
        <time>2014-09-23T13:21:26Z</time>
      </trkpt>
      <trkpt lat="47.1892" lon="5.52349">
        <ele>248.819702</ele>
        <time>2014-09-23T13:21:46Z</time>
      </trkpt>
      <trkpt lat="47.18922" lon="5.52349">
        <ele>248.712128</ele>
        <time>2014-09-23T13:22:06Z</time>
      </trkpt>
      <trkpt lat="47.18926" lon="5.52358">
        <ele>249.335007</ele>
        <time>2014-09-23T13:22:26Z</time>
      </trkpt>
      <trkpt lat="47.18944" lon="5.52355">
        <ele>248.259995</ele>
        <time>2014-09-23T13:22:46Z</time>
      </trkpt>
      <trkpt lat="47.18958" lon="5.52344">
        <ele>246.880005</ele>
        <time>2014-09-23T13:23:06Z</time>
      </trkpt>
      <trkpt lat="47.18979" lon="5.52335">
        <ele>245.699997</ele>
        <time>2014-09-23T13:23:26Z</time>
      </trkpt>
      <trkpt lat="47.19003" lon="5.52332">
        <ele>246.25</ele>
        <time>2014-09-23T13:23:46Z</time>
      </trkpt>
      <trkpt lat="47.19029" lon="5.52323">
        <ele>248.427872</ele>
        <time>2014-09-23T13:24:06Z</time>
      </trkpt>
      <trkpt lat="47.19053" lon="5.52319">
        <ele>254.685623</ele>
        <time>2014-09-23T13:24:26Z</time>
      </trkpt>
      <trkpt lat="47.19073" lon="5.52304">
        <ele>254.951752</ele>
        <time>2014-09-23T13:24:46Z</time>
      </trkpt>
      <trkpt lat="47.19092" lon="5.52292">
        <ele>254.632507</ele>
        <time>2014-09-23T13:25:06Z</time>
      </trkpt>
      <trkpt lat="47.19113" lon="5.52275">
        <ele>253.688812</ele>
        <time>2014-09-23T13:25:26Z</time>
      </trkpt>
      <trkpt lat="47.19134" lon="5.52258">
        <ele>251.386185</ele>
        <time>2014-09-23T13:25:46Z</time>
      </trkpt>
      <trkpt lat="47.19154" lon="5.52235">
        <ele>247.703598</ele>
        <time>2014-09-23T13:26:06Z</time>
      </trkpt>
      <trkpt lat="47.19173" lon="5.52211">
        <ele>242.894669</ele>
        <time>2014-09-23T13:26:26Z</time>
      </trkpt>
      <trkpt lat="47.19199" lon="5.522">
        <ele>242.735703</ele>
        <time>2014-09-23T13:26:46Z</time>
      </trkpt>
      <trkpt lat="47.19225" lon="5.52191">
        <ele>242.282013</ele>
        <time>2014-09-23T13:27:06Z</time>
      </trkpt>
      <trkpt lat="47.19247" lon="5.5218">
        <ele>241.346497</ele>
        <time>2014-09-23T13:27:26Z</time>
      </trkpt>
      <trkpt lat="47.19268" lon="5.52169">
        <ele>241.324005</ele>
        <time>2014-09-23T13:27:46Z</time>
      </trkpt>
      <trkpt lat="47.19286" lon="5.52156">
        <ele>241.507233</ele>
        <time>2014-09-23T13:28:06Z</time>
      </trkpt>
      <trkpt lat="47.19307" lon="5.52138">
        <ele>240.29538</ele>
        <time>2014-09-23T13:28:26Z</time>
      </trkpt>
      <trkpt lat="47.19324" lon="5.52115">
        <ele>237.133682</ele>
        <time>2014-09-23T13:28:46Z</time>
      </trkpt>
      <trkpt lat="47.19346" lon="5.52098">
        <ele>234.409698</ele>
        <time>2014-09-23T13:29:06Z</time>
      </trkpt>
      <trkpt lat="47.1937" lon="5.521">
        <ele>234.252808</ele>
        <time>2014-09-23T13:29:26Z</time>
      </trkpt>
      <trkpt lat="47.19394" lon="5.52102">
        <ele>234.098007</ele>
        <time>2014-09-23T13:29:46Z</time>
      </trkpt>
      <trkpt lat="47.19419" lon="5.52108">
        <ele>233.841293</ele>
        <time>2014-09-23T13:30:06Z</time>
      </trkpt>
      <trkpt lat="47.19439" lon="5.52116">
        <ele>233.871826</ele>
        <time>2014-09-23T13:30:26Z</time>
      </trkpt>
      <trkpt lat="47.19462" lon="5.52123">
        <ele>233.409729</ele>
        <time>2014-09-23T13:30:46Z</time>
      </trkpt>
      <trkpt lat="47.19485" lon="5.52134">
        <ele>232.962143</ele>
        <time>2014-09-23T13:31:06Z</time>
      </trkpt>
      <trkpt lat="47.19502" lon="5.52161">
        <ele>233.28862</ele>
        <time>2014-09-23T13:31:26Z</time>
      </trkpt>
      <trkpt lat="47.19514" lon="5.5219">
        <ele>233.252502</ele>
        <time>2014-09-23T13:31:46Z</time>
      </trkpt>
      <trkpt lat="47.19527" lon="5.52217">
        <ele>233.275009</ele>
        <time>2014-09-23T13:32:06Z</time>
      </trkpt>
      <trkpt lat="47.1954" lon="5.52244">
        <ele>233.970657</ele>
        <time>2014-09-23T13:32:26Z</time>
      </trkpt>
      <trkpt lat="47.19551" lon="5.52267">
        <ele>234.634476</ele>
        <time>2014-09-23T13:32:46Z</time>
      </trkpt>
      <trkpt lat="47.1956" lon="5.5229">
        <ele>234.913651</ele>
        <time>2014-09-23T13:33:06Z</time>
      </trkpt>
      <trkpt lat="47.19573" lon="5.52312">
        <ele>235.265427</ele>
        <time>2014-09-23T13:33:26Z</time>
      </trkpt>
      <trkpt lat="47.19583" lon="5.52335">
        <ele>236.348297</ele>
        <time>2014-09-23T13:33:46Z</time>
      </trkpt>
      <trkpt lat="47.1959" lon="5.52359">
        <ele>237.825806</ele>
        <time>2014-09-23T13:34:06Z</time>
      </trkpt>
      <trkpt lat="47.19603" lon="5.52383">
        <ele>239.335007</ele>
        <time>2014-09-23T13:34:26Z</time>
      </trkpt>
      <trkpt lat="47.19606" lon="5.52388">
        <ele>239.612503</ele>
        <time>2014-09-23T13:34:46Z</time>
      </trkpt>
      <trkpt lat="47.19606" lon="5.52388">
        <ele>239.612503</ele>
        <time>2014-09-23T13:35:06Z</time>
      </trkpt>
      <trkpt lat="47.19609" lon="5.52401">
        <ele>240.43042</ele>
        <time>2014-09-23T13:35:26Z</time>
      </trkpt>
      <trkpt lat="47.19608" lon="5.52429">
        <ele>241.336899</ele>
        <time>2014-09-23T13:35:46Z</time>
      </trkpt>
      <trkpt lat="47.19609" lon="5.52442">
        <ele>241.660004</ele>
        <time>2014-09-23T13:36:06Z</time>
      </trkpt>
      <trkpt lat="47.19609" lon="5.52442">
        <ele>241.660004</ele>
        <time>2014-09-23T13:36:26Z</time>
      </trkpt>
      <trkpt lat="47.19609" lon="5.52442">
        <ele>241.690002</ele>
        <time>2014-09-23T13:36:46Z</time>
      </trkpt>
      <trkpt lat="47.19609" lon="5.52442">
        <ele>241.690002</ele>
        <time>2014-09-23T13:37:06Z</time>
      </trkpt>
      <trkpt lat="47.1961" lon="5.52442">
        <ele>241.720001</ele>
        <time>2014-09-23T13:37:26Z</time>
      </trkpt>
      <trkpt lat="47.1961" lon="5.52442">
        <ele>241.720001</ele>
        <time>2014-09-23T13:37:46Z</time>
      </trkpt>
      <trkpt lat="47.1961" lon="5.52442">
        <ele>241.75</ele>
        <time>2014-09-23T13:38:06Z</time>
      </trkpt>
      <trkpt lat="47.1961" lon="5.52442">
        <ele>241.75</ele>
        <time>2014-09-23T13:38:26Z</time>
      </trkpt>
      <trkpt lat="47.1961" lon="5.52442">
        <ele>241.779999</ele>
        <time>2014-09-23T13:38:46Z</time>
      </trkpt>
      <trkpt lat="47.19616" lon="5.52449">
        <ele>242.559998</ele>
        <time>2014-09-23T13:39:06Z</time>
      </trkpt>
      <trkpt lat="47.19622" lon="5.52479">
        <ele>243.550003</ele>
        <time>2014-09-23T13:39:26Z</time>
      </trkpt>
      <trkpt lat="47.19627" lon="5.52495">
        <ele>244.179993</ele>
        <time>2014-09-23T13:39:46Z</time>
      </trkpt>
      <trkpt lat="47.19626" lon="5.52495">
        <ele>244.089996</ele>
        <time>2014-09-23T13:40:06Z</time>
      </trkpt>
      <trkpt lat="47.19626" lon="5.52495">
        <ele>244.089996</ele>
        <time>2014-09-23T13:40:26Z</time>
      </trkpt>
      <trkpt lat="47.19632" lon="5.52509">
        <ele>245.199997</ele>
        <time>2014-09-23T13:40:46Z</time>
      </trkpt>
      <trkpt lat="47.19647" lon="5.52513">
        <ele>247.091522</ele>
        <time>2014-09-23T13:41:06Z</time>
      </trkpt>
      <trkpt lat="47.19658" lon="5.5249">
        <ele>248.2052</ele>
        <time>2014-09-23T13:41:26Z</time>
      </trkpt>
      <trkpt lat="47.19666" lon="5.52465">
        <ele>248.453598</ele>
        <time>2014-09-23T13:41:46Z</time>
      </trkpt>
      <trkpt lat="47.19677" lon="5.5245">
        <ele>248.701904</ele>
        <time>2014-09-23T13:42:06Z</time>
      </trkpt>
      <trkpt lat="47.19688" lon="5.52454">
        <ele>249.579544</ele>
        <time>2014-09-23T13:42:26Z</time>
      </trkpt>
      <trkpt lat="47.19707" lon="5.52468">
        <ele>251.289505</ele>
        <time>2014-09-23T13:42:46Z</time>
      </trkpt>
      <trkpt lat="47.19717" lon="5.52482">
        <ele>252.772156</ele>
        <time>2014-09-23T13:43:06Z</time>
      </trkpt>
      <trkpt lat="47.19717" lon="5.52481">
        <ele>252.630753</ele>
        <time>2014-09-23T13:43:26Z</time>
      </trkpt>
      <trkpt lat="47.19717" lon="5.52481">
        <ele>252.630753</ele>
        <time>2014-09-23T13:43:46Z</time>
      </trkpt>
      <trkpt lat="47.19728" lon="5.52491">
        <ele>254.059982</ele>
        <time>2014-09-23T13:44:06Z</time>
      </trkpt>
      <trkpt lat="47.19746" lon="5.52509">
        <ele>256.025879</ele>
        <time>2014-09-23T13:44:26Z</time>
      </trkpt>
      <trkpt lat="47.1976" lon="5.52518">
        <ele>256.285309</ele>
        <time>2014-09-23T13:44:46Z</time>
      </trkpt>
      <trkpt lat="47.19777" lon="5.52533">
        <ele>256.97644</ele>
        <time>2014-09-23T13:45:06Z</time>
      </trkpt>
      <trkpt lat="47.19772" lon="5.52555">
        <ele>257.77774</ele>
        <time>2014-09-23T13:45:26Z</time>
      </trkpt>
      <trkpt lat="47.19765" lon="5.52579">
        <ele>258.395905</ele>
        <time>2014-09-23T13:45:46Z</time>
      </trkpt>
      <trkpt lat="47.19758" lon="5.52601">
        <ele>258.419037</ele>
        <time>2014-09-23T13:46:06Z</time>
      </trkpt>
      <trkpt lat="47.19747" lon="5.52624">
        <ele>258.016449</ele>
        <time>2014-09-23T13:46:26Z</time>
      </trkpt>
      <trkpt lat="47.19742" lon="5.5264">
        <ele>257.730591</ele>
        <time>2014-09-23T13:46:46Z</time>
      </trkpt>
      <trkpt lat="47.19729" lon="5.52671">
        <ele>258.196259</ele>
        <time>2014-09-23T13:47:06Z</time>
      </trkpt>
      <trkpt lat="47.1972" lon="5.52702">
        <ele>259.066254</ele>
        <time>2014-09-23T13:47:26Z</time>
      </trkpt>
      <trkpt lat="47.19715" lon="5.52731">
        <ele>259.976685</ele>
        <time>2014-09-23T13:47:46Z</time>
      </trkpt>
      <trkpt lat="47.19717" lon="5.52763">
        <ele>261.654053</ele>
        <time>2014-09-23T13:48:06Z</time>
      </trkpt>
      <trkpt lat="47.19725" lon="5.52797">
        <ele>263.334991</ele>
        <time>2014-09-23T13:48:26Z</time>
      </trkpt>
      <trkpt lat="47.19735" lon="5.52828">
        <ele>264.963745</ele>
        <time>2014-09-23T13:48:46Z</time>
      </trkpt>
      <trkpt lat="47.19745" lon="5.52862">
        <ele>266.88089</ele>
        <time>2014-09-23T13:49:06Z</time>
      </trkpt>
      <trkpt lat="47.19754" lon="5.52894">
        <ele>268.535004</ele>
        <time>2014-09-23T13:49:26Z</time>
      </trkpt>
      <trkpt lat="47.19764" lon="5.52921">
        <ele>269.839447</ele>
        <time>2014-09-23T13:49:46Z</time>
      </trkpt>
      <trkpt lat="47.19769" lon="5.52956">
        <ele>270.162628</ele>
        <time>2014-09-23T13:50:06Z</time>
      </trkpt>
      <trkpt lat="47.19771" lon="5.52991">
        <ele>269.593109</ele>
        <time>2014-09-23T13:50:26Z</time>
      </trkpt>
      <trkpt lat="47.1977" lon="5.53025">
        <ele>268.558319</ele>
        <time>2014-09-23T13:50:46Z</time>
      </trkpt>
      <trkpt lat="47.19774" lon="5.53052">
        <ele>268.535126</ele>
        <time>2014-09-23T13:51:06Z</time>
      </trkpt>
      <trkpt lat="47.19785" lon="5.53082">
        <ele>269.090454</ele>
        <time>2014-09-23T13:51:26Z</time>
      </trkpt>
      <trkpt lat="47.19796" lon="5.53114">
        <ele>269.483612</ele>
        <time>2014-09-23T13:51:46Z</time>
      </trkpt>
      <trkpt lat="47.19812" lon="5.5314">
        <ele>270.08725</ele>
        <time>2014-09-23T13:52:06Z</time>
      </trkpt>
      <trkpt lat="47.19832" lon="5.53162">
        <ele>271.089996</ele>
        <time>2014-09-23T13:52:26Z</time>
      </trkpt>
      <trkpt lat="47.1985" lon="5.53177">
        <ele>271.883392</ele>
        <time>2014-09-23T13:52:46Z</time>
      </trkpt>
      <trkpt lat="47.19871" lon="5.53191">
        <ele>272.924866</ele>
        <time>2014-09-23T13:53:06Z</time>
      </trkpt>
      <trkpt lat="47.19893" lon="5.53206">
        <ele>273.820587</ele>
        <time>2014-09-23T13:53:26Z</time>
      </trkpt>
      <trkpt lat="47.19915" lon="5.53223">
        <ele>274.75</ele>
        <time>2014-09-23T13:53:46Z</time>
      </trkpt>
      <trkpt lat="47.19938" lon="5.53238">
        <ele>275.809998</ele>
        <time>2014-09-23T13:54:06Z</time>
      </trkpt>
      <trkpt lat="47.1996" lon="5.53254">
        <ele>276.461517</ele>
        <time>2014-09-23T13:54:26Z</time>
      </trkpt>
      <trkpt lat="47.19975" lon="5.53265">
        <ele>276.810669</ele>
        <time>2014-09-23T13:54:46Z</time>
      </trkpt>
      <trkpt lat="47.19994" lon="5.53294">
        <ele>277</ele>
        <time>2014-09-23T13:55:06Z</time>
      </trkpt>
      <trkpt lat="47.20007" lon="5.5333">
        <ele>277.32193</ele>
        <time>2014-09-23T13:55:26Z</time>
      </trkpt>
      <trkpt lat="47.20009" lon="5.53364">
        <ele>278.035004</ele>
        <time>2014-09-23T13:55:46Z</time>
      </trkpt>
      <trkpt lat="47.20009" lon="5.53364">
        <ele>278.051239</ele>
        <time>2014-09-23T13:56:06Z</time>
      </trkpt>
      <trkpt lat="47.2001" lon="5.53381">
        <ele>278.3685</ele>
        <time>2014-09-23T13:56:26Z</time>
      </trkpt>
      <trkpt lat="47.20016" lon="5.53414">
        <ele>279.556244</ele>
        <time>2014-09-23T13:56:46Z</time>
      </trkpt>
      <trkpt lat="47.20023" lon="5.53445">
        <ele>280.839111</ele>
        <time>2014-09-23T13:57:06Z</time>
      </trkpt>
      <trkpt lat="47.20033" lon="5.53474">
        <ele>281.971252</ele>
        <time>2014-09-23T13:57:26Z</time>
      </trkpt>
      <trkpt lat="47.20043" lon="5.53501">
        <ele>282.886261</ele>
        <time>2014-09-23T13:57:46Z</time>
      </trkpt>
      <trkpt lat="47.20054" lon="5.53529">
        <ele>283.951965</ele>
        <time>2014-09-23T13:58:06Z</time>
      </trkpt>
      <trkpt lat="47.20065" lon="5.53557">
        <ele>284.931519</ele>
        <time>2014-09-23T13:58:26Z</time>
      </trkpt>
      <trkpt lat="47.20071" lon="5.53569">
        <ele>285.243744</ele>
        <time>2014-09-23T13:58:46Z</time>
      </trkpt>
      <trkpt lat="47.20079" lon="5.53597">
        <ele>286.415009</ele>
        <time>2014-09-23T13:59:06Z</time>
      </trkpt>
      <trkpt lat="47.20088" lon="5.53629">
        <ele>288.387512</ele>
        <time>2014-09-23T13:59:26Z</time>
      </trkpt>
      <trkpt lat="47.20097" lon="5.53671">
        <ele>290.804993</ele>
        <time>2014-09-23T13:59:46Z</time>
      </trkpt>
      <trkpt lat="47.20105" lon="5.53705">
        <ele>292.404999</ele>
        <time>2014-09-23T14:00:06Z</time>
      </trkpt>
      <trkpt lat="47.20109" lon="5.53737">
        <ele>294.132904</ele>
        <time>2014-09-23T14:00:26Z</time>
      </trkpt>
      <trkpt lat="47.20113" lon="5.53772">
        <ele>295.935303</ele>
        <time>2014-09-23T14:00:46Z</time>
      </trkpt>
      <trkpt lat="47.20115" lon="5.53801">
        <ele>297.660553</ele>
        <time>2014-09-23T14:01:06Z</time>
      </trkpt>
      <trkpt lat="47.20124" lon="5.5383">
        <ele>299.195343</ele>
        <time>2014-09-23T14:01:26Z</time>
      </trkpt>
      <trkpt lat="47.2014" lon="5.53854">
        <ele>300.317993</ele>
        <time>2014-09-23T14:01:46Z</time>
      </trkpt>
      <trkpt lat="47.20155" lon="5.53873">
        <ele>301.0737</ele>
        <time>2014-09-23T14:02:06Z</time>
      </trkpt>
      <trkpt lat="47.2017" lon="5.53894">
        <ele>302.293518</ele>
        <time>2014-09-23T14:02:26Z</time>
      </trkpt>
      <trkpt lat="47.20182" lon="5.53915">
        <ele>304.19574</ele>
        <time>2014-09-23T14:02:46Z</time>
      </trkpt>
      <trkpt lat="47.20194" lon="5.53938">
        <ele>306.462433</ele>
        <time>2014-09-23T14:03:06Z</time>
      </trkpt>
      <trkpt lat="47.20211" lon="5.53955">
        <ele>307.773956</ele>
        <time>2014-09-23T14:03:26Z</time>
      </trkpt>
      <trkpt lat="47.2023" lon="5.53971">
        <ele>309.039185</ele>
        <time>2014-09-23T14:03:46Z</time>
      </trkpt>
      <trkpt lat="47.20245" lon="5.53977">
        <ele>309.37207</ele>
        <time>2014-09-23T14:04:06Z</time>
      </trkpt>
      <trkpt lat="47.20264" lon="5.53995">
        <ele>310.70874</ele>
        <time>2014-09-23T14:04:26Z</time>
      </trkpt>
      <trkpt lat="47.20284" lon="5.5401">
        <ele>311.662506</ele>
        <time>2014-09-23T14:04:46Z</time>
      </trkpt>
      <trkpt lat="47.20305" lon="5.54029">
        <ele>312.540009</ele>
        <time>2014-09-23T14:05:06Z</time>
      </trkpt>
      <trkpt lat="47.20325" lon="5.54048">
        <ele>313.592499</ele>
        <time>2014-09-23T14:05:26Z</time>
      </trkpt>
      <trkpt lat="47.2034" lon="5.54071">
        <ele>315.265808</ele>
        <time>2014-09-23T14:05:46Z</time>
      </trkpt>
      <trkpt lat="47.20357" lon="5.54101">
        <ele>317.658203</ele>
        <time>2014-09-23T14:06:06Z</time>
      </trkpt>
      <trkpt lat="47.20371" lon="5.54127">
        <ele>319.292267</ele>
        <time>2014-09-23T14:06:26Z</time>
      </trkpt>
      <trkpt lat="47.20387" lon="5.54154">
        <ele>320.03537</ele>
        <time>2014-09-23T14:06:46Z</time>
      </trkpt>
      <trkpt lat="47.20405" lon="5.54178">
        <ele>320.890778</ele>
        <time>2014-09-23T14:07:06Z</time>
      </trkpt>
      <trkpt lat="47.20421" lon="5.54204">
        <ele>321.300812</ele>
        <time>2014-09-23T14:07:26Z</time>
      </trkpt>
      <trkpt lat="47.20437" lon="5.54227">
        <ele>320.559998</ele>
        <time>2014-09-23T14:07:46Z</time>
      </trkpt>
      <trkpt lat="47.20455" lon="5.54248">
        <ele>320.235596</ele>
        <time>2014-09-23T14:08:06Z</time>
      </trkpt>
      <trkpt lat="47.20468" lon="5.54271">
        <ele>319.89566</ele>
        <time>2014-09-23T14:08:26Z</time>
      </trkpt>
      <trkpt lat="47.20483" lon="5.54299">
        <ele>319.410797</ele>
        <time>2014-09-23T14:08:46Z</time>
      </trkpt>
      <trkpt lat="47.20496" lon="5.54329">
        <ele>320.210114</ele>
        <time>2014-09-23T14:09:06Z</time>
      </trkpt>
      <trkpt lat="47.20509" lon="5.5436">
        <ele>321.118713</ele>
        <time>2014-09-23T14:09:26Z</time>
      </trkpt>
      <trkpt lat="47.20523" lon="5.54388">
        <ele>321.340424</ele>
        <time>2014-09-23T14:09:46Z</time>
      </trkpt>
      <trkpt lat="47.20536" lon="5.54412">
        <ele>321.863892</ele>
        <time>2014-09-23T14:10:06Z</time>
      </trkpt>
      <trkpt lat="47.20551" lon="5.54439">
        <ele>323.515015</ele>
        <time>2014-09-23T14:10:26Z</time>
      </trkpt>
      <trkpt lat="47.20564" lon="5.54463">
        <ele>325.309998</ele>
        <time>2014-09-23T14:10:46Z</time>
      </trkpt>
      <trkpt lat="47.20576" lon="5.54494">
        <ele>327.174988</ele>
        <time>2014-09-23T14:11:06Z</time>
      </trkpt>
      <trkpt lat="47.20588" lon="5.5452">
        <ele>328.500122</ele>
        <time>2014-09-23T14:11:26Z</time>
      </trkpt>
      <trkpt lat="47.20599" lon="5.54548">
        <ele>329.806183</ele>
        <time>2014-09-23T14:11:46Z</time>
      </trkpt>
      <trkpt lat="47.20611" lon="5.54575">
        <ele>330.228394</ele>
        <time>2014-09-23T14:12:06Z</time>
      </trkpt>
      <trkpt lat="47.20622" lon="5.54601">
        <ele>330.769806</ele>
        <time>2014-09-23T14:12:26Z</time>
      </trkpt>
      <trkpt lat="47.20631" lon="5.5463">
        <ele>331.31189</ele>
        <time>2014-09-23T14:12:46Z</time>
      </trkpt>
      <trkpt lat="47.20636" lon="5.54662">
        <ele>332.219788</ele>
        <time>2014-09-23T14:13:06Z</time>
      </trkpt>
      <trkpt lat="47.20639" lon="5.54687">
        <ele>332.35141</ele>
        <time>2014-09-23T14:13:26Z</time>
      </trkpt>
      <trkpt lat="47.20634" lon="5.54716">
        <ele>331.525635</ele>
        <time>2014-09-23T14:13:46Z</time>
      </trkpt>
      <trkpt lat="47.20628" lon="5.54731">
        <ele>330.76474</ele>
        <time>2014-09-23T14:14:06Z</time>
      </trkpt>
      <trkpt lat="47.20626" lon="5.54735">
        <ele>330.502045</ele>
        <time>2014-09-23T14:14:26Z</time>
      </trkpt>
      <trkpt lat="47.2062" lon="5.54744">
        <ele>329.373932</ele>
        <time>2014-09-23T14:14:46Z</time>
      </trkpt>
      <trkpt lat="47.2062" lon="5.54744">
        <ele>329.373932</ele>
        <time>2014-09-23T14:15:06Z</time>
      </trkpt>
      <trkpt lat="47.2062" lon="5.54744">
        <ele>329.388885</ele>
        <time>2014-09-23T14:15:26Z</time>
      </trkpt>
      <trkpt lat="47.2062" lon="5.54744">
        <ele>329.388885</ele>
        <time>2014-09-23T14:15:46Z</time>
      </trkpt>
      <trkpt lat="47.2062" lon="5.54744">
        <ele>329.34668</ele>
        <time>2014-09-23T14:16:06Z</time>
      </trkpt>
      <trkpt lat="47.2062" lon="5.54744">
        <ele>329.34668</ele>
        <time>2014-09-23T14:16:26Z</time>
      </trkpt>
      <trkpt lat="47.20618" lon="5.5474">
        <ele>329.242584</ele>
        <time>2014-09-23T14:16:46Z</time>
      </trkpt>
      <trkpt lat="47.20618" lon="5.5474">
        <ele>329.242584</ele>
        <time>2014-09-23T14:17:06Z</time>
      </trkpt>
      <trkpt lat="47.20618" lon="5.54739">
        <ele>329.31781</ele>
        <time>2014-09-23T14:17:26Z</time>
      </trkpt>
      <trkpt lat="47.20618" lon="5.54739">
        <ele>329.31781</ele>
        <time>2014-09-23T14:17:46Z</time>
      </trkpt>
      <trkpt lat="47.20618" lon="5.54739">
        <ele>329.372009</ele>
        <time>2014-09-23T14:18:06Z</time>
      </trkpt>
      <trkpt lat="47.20618" lon="5.54739">
        <ele>329.372009</ele>
        <time>2014-09-23T14:18:26Z</time>
      </trkpt>
      <trkpt lat="47.20618" lon="5.54739">
        <ele>329.272491</ele>
        <time>2014-09-23T14:18:46Z</time>
      </trkpt>
      <trkpt lat="47.20618" lon="5.54739">
        <ele>329.272491</ele>
        <time>2014-09-23T14:19:06Z</time>
      </trkpt>
      <trkpt lat="47.20617" lon="5.54739">
        <ele>329.196014</ele>
        <time>2014-09-23T14:19:26Z</time>
      </trkpt>
      <trkpt lat="47.20617" lon="5.54739">
        <ele>329.196014</ele>
        <time>2014-09-23T14:19:46Z</time>
      </trkpt>
      <trkpt lat="47.20625" lon="5.54754">
        <ele>329.08902</ele>
        <time>2014-09-23T14:20:06Z</time>
      </trkpt>
      <trkpt lat="47.20636" lon="5.54786">
        <ele>328.042053</ele>
        <time>2014-09-23T14:20:26Z</time>
      </trkpt>
      <trkpt lat="47.20651" lon="5.54817">
        <ele>328.142487</ele>
        <time>2014-09-23T14:20:46Z</time>
      </trkpt>
      <trkpt lat="47.20663" lon="5.54851">
        <ele>327.042511</ele>
        <time>2014-09-23T14:21:06Z</time>
      </trkpt>
      <trkpt lat="47.20673" lon="5.5488">
        <ele>325.925049</ele>
        <time>2014-09-23T14:21:26Z</time>
      </trkpt>
      <trkpt lat="47.2069" lon="5.5491">
        <ele>326.004303</ele>
        <time>2014-09-23T14:21:46Z</time>
      </trkpt>
      <trkpt lat="47.20701" lon="5.54936">
        <ele>325.835632</ele>
        <time>2014-09-23T14:22:06Z</time>
      </trkpt>
      <trkpt lat="47.20701" lon="5.54936">
        <ele>325.835632</ele>
        <time>2014-09-23T14:22:26Z</time>
      </trkpt>
      <trkpt lat="47.20711" lon="5.54958">
        <ele>325.430756</ele>
        <time>2014-09-23T14:22:46Z</time>
      </trkpt>
      <trkpt lat="47.20724" lon="5.54982">
        <ele>325.085999</ele>
        <time>2014-09-23T14:23:06Z</time>
      </trkpt>
      <trkpt lat="47.20733" lon="5.5501">
        <ele>324.676697</ele>
        <time>2014-09-23T14:23:26Z</time>
      </trkpt>
      <trkpt lat="47.20741" lon="5.55026">
        <ele>323.81485</ele>
        <time>2014-09-23T14:23:46Z</time>
      </trkpt>
      <trkpt lat="47.2075" lon="5.55054">
        <ele>321.51181</ele>
        <time>2014-09-23T14:24:06Z</time>
      </trkpt>
      <trkpt lat="47.20765" lon="5.55075">
        <ele>319.8172</ele>
        <time>2014-09-23T14:24:26Z</time>
      </trkpt>
      <trkpt lat="47.20783" lon="5.55092">
        <ele>318.375</ele>
        <time>2014-09-23T14:24:46Z</time>
      </trkpt>
      <trkpt lat="47.2079" lon="5.55104">
        <ele>317.075012</ele>
        <time>2014-09-23T14:25:06Z</time>
      </trkpt>
      <trkpt lat="47.20792" lon="5.55107">
        <ele>316.569305</ele>
        <time>2014-09-23T14:25:26Z</time>
      </trkpt>
      <trkpt lat="47.20795" lon="5.55093">
        <ele>318.139069</ele>
        <time>2014-09-23T14:25:46Z</time>
      </trkpt>
      <trkpt lat="47.2081" lon="5.55081">
        <ele>317.875</ele>
        <time>2014-09-23T14:26:06Z</time>
      </trkpt>
      <trkpt lat="47.20826" lon="5.55065">
        <ele>318.157532</ele>
        <time>2014-09-23T14:26:26Z</time>
      </trkpt>
      <trkpt lat="47.20847" lon="5.55056">
        <ele>317.554504</ele>
        <time>2014-09-23T14:26:46Z</time>
      </trkpt>
      <trkpt lat="47.20869" lon="5.55046">
        <ele>317.315948</ele>
        <time>2014-09-23T14:27:06Z</time>
      </trkpt>
      <trkpt lat="47.20893" lon="5.55037">
        <ele>317.613037</ele>
        <time>2014-09-23T14:27:26Z</time>
      </trkpt>
      <trkpt lat="47.20913" lon="5.55026">
        <ele>319.371765</ele>
        <time>2014-09-23T14:27:46Z</time>
      </trkpt>
      <trkpt lat="47.20933" lon="5.55021">
        <ele>319.905487</ele>
        <time>2014-09-23T14:28:06Z</time>
      </trkpt>
      <trkpt lat="47.20956" lon="5.5502">
        <ele>319.646301</ele>
        <time>2014-09-23T14:28:26Z</time>
      </trkpt>
      <trkpt lat="47.20969" lon="5.55028">
        <ele>319.67218</ele>
        <time>2014-09-23T14:28:46Z</time>
      </trkpt>
      <trkpt lat="47.20977" lon="5.55063">
        <ele>316.203125</ele>
        <time>2014-09-23T14:29:06Z</time>
      </trkpt>
      <trkpt lat="47.20967" lon="5.55095">
        <ele>312.314789</ele>
        <time>2014-09-23T14:29:26Z</time>
      </trkpt>
      <trkpt lat="47.20958" lon="5.5512">
        <ele>308.740448</ele>
        <time>2014-09-23T14:29:46Z</time>
      </trkpt>
      <trkpt lat="47.2095" lon="5.55134">
        <ele>306.307617</ele>
        <time>2014-09-23T14:30:06Z</time>
      </trkpt>
      <trkpt lat="47.20933" lon="5.55158">
        <ele>301.649017</ele>
        <time>2014-09-23T14:30:26Z</time>
      </trkpt>
      <trkpt lat="47.20918" lon="5.5518">
        <ele>297.91864</ele>
        <time>2014-09-23T14:30:46Z</time>
      </trkpt>
      <trkpt lat="47.20901" lon="5.55201">
        <ele>295.247192</ele>
        <time>2014-09-23T14:31:06Z</time>
      </trkpt>
      <trkpt lat="47.20886" lon="5.55226">
        <ele>292.044495</ele>
        <time>2014-09-23T14:31:26Z</time>
      </trkpt>
      <trkpt lat="47.20877" lon="5.55258">
        <ele>288.126099</ele>
        <time>2014-09-23T14:31:46Z</time>
      </trkpt>
      <trkpt lat="47.20866" lon="5.55287">
        <ele>286.282501</ele>
        <time>2014-09-23T14:32:06Z</time>
      </trkpt>
      <trkpt lat="47.2086" lon="5.55321">
        <ele>284.152496</ele>
        <time>2014-09-23T14:32:26Z</time>
      </trkpt>
      <trkpt lat="47.20851" lon="5.55354">
        <ele>282.679749</ele>
        <time>2014-09-23T14:32:46Z</time>
      </trkpt>
      <trkpt lat="47.20838" lon="5.55378">
        <ele>283.011322</ele>
        <time>2014-09-23T14:33:06Z</time>
      </trkpt>
      <trkpt lat="47.20834" lon="5.55408">
        <ele>281.425964</ele>
        <time>2014-09-23T14:33:26Z</time>
      </trkpt>
      <trkpt lat="47.20833" lon="5.55423">
        <ele>280.927338</ele>
        <time>2014-09-23T14:33:46Z</time>
      </trkpt>
      <trkpt lat="47.20836" lon="5.55452">
        <ele>279.572388</ele>
        <time>2014-09-23T14:34:06Z</time>
      </trkpt>
      <trkpt lat="47.20842" lon="5.55482">
        <ele>277.18811</ele>
        <time>2014-09-23T14:34:26Z</time>
      </trkpt>
      <trkpt lat="47.20851" lon="5.55514">
        <ele>274.744324</ele>
        <time>2014-09-23T14:34:46Z</time>
      </trkpt>
      <trkpt lat="47.20859" lon="5.55548">
        <ele>272.167999</ele>
        <time>2014-09-23T14:35:06Z</time>
      </trkpt>
      <trkpt lat="47.20863" lon="5.55583">
        <ele>270.105499</ele>
        <time>2014-09-23T14:35:26Z</time>
      </trkpt>
      <trkpt lat="47.20858" lon="5.55619">
        <ele>270.261963</ele>
        <time>2014-09-23T14:35:46Z</time>
      </trkpt>
      <trkpt lat="47.20851" lon="5.55653">
        <ele>270.803833</ele>
        <time>2014-09-23T14:36:06Z</time>
      </trkpt>
      <trkpt lat="47.20847" lon="5.55688">
        <ele>270.512512</ele>
        <time>2014-09-23T14:36:26Z</time>
      </trkpt>
      <trkpt lat="47.20845" lon="5.55721">
        <ele>269.742493</ele>
        <time>2014-09-23T14:36:46Z</time>
      </trkpt>
      <trkpt lat="47.20843" lon="5.55756">
        <ele>268.397369</ele>
        <time>2014-09-23T14:37:06Z</time>
      </trkpt>
      <trkpt lat="47.20835" lon="5.55788">
        <ele>268.434021</ele>
        <time>2014-09-23T14:37:26Z</time>
      </trkpt>
      <trkpt lat="47.20821" lon="5.55818">
        <ele>269.0672</ele>
        <time>2014-09-23T14:37:46Z</time>
      </trkpt>
      <trkpt lat="47.20803" lon="5.55839">
        <ele>268.756195</ele>
        <time>2014-09-23T14:38:06Z</time>
      </trkpt>
      <trkpt lat="47.20782" lon="5.55848">
        <ele>268.147186</ele>
        <time>2014-09-23T14:38:26Z</time>
      </trkpt>
      <trkpt lat="47.20762" lon="5.55867">
        <ele>265.932495</ele>
        <time>2014-09-23T14:38:46Z</time>
      </trkpt>
      <trkpt lat="47.20768" lon="5.55894">
        <ele>263.899994</ele>
        <time>2014-09-23T14:39:06Z</time>
      </trkpt>
      <trkpt lat="47.20776" lon="5.55923">
        <ele>261.327515</ele>
        <time>2014-09-23T14:39:26Z</time>
      </trkpt>
      <trkpt lat="47.20782" lon="5.55949">
        <ele>259.059021</ele>
        <time>2014-09-23T14:39:46Z</time>
      </trkpt>
      <trkpt lat="47.20782" lon="5.55949">
        <ele>259.059021</ele>
        <time>2014-09-23T14:40:06Z</time>
      </trkpt>
      <trkpt lat="47.20782" lon="5.5595">
        <ele>258.991852</ele>
        <time>2014-09-23T14:40:26Z</time>
      </trkpt>
      <trkpt lat="47.20778" lon="5.55952">
        <ele>258.865631</ele>
        <time>2014-09-23T14:40:46Z</time>
      </trkpt>
      <trkpt lat="47.20756" lon="5.55959">
        <ele>257.575012</ele>
        <time>2014-09-23T14:41:06Z</time>
      </trkpt>
      <trkpt lat="47.20736" lon="5.55963">
        <ele>255.860001</ele>
        <time>2014-09-23T14:41:26Z</time>
      </trkpt>
      <trkpt lat="47.20724" lon="5.5597">
        <ele>254.505005</ele>
        <time>2014-09-23T14:41:46Z</time>
      </trkpt>
      <trkpt lat="47.20702" lon="5.55992">
        <ele>250.53685</ele>
        <time>2014-09-23T14:42:06Z</time>
      </trkpt>
      <trkpt lat="47.20687" lon="5.56013">
        <ele>247.700623</ele>
        <time>2014-09-23T14:42:26Z</time>
      </trkpt>
      <trkpt lat="47.2067" lon="5.56044">
        <ele>244.442017</ele>
        <time>2014-09-23T14:42:46Z</time>
      </trkpt>
      <trkpt lat="47.20661" lon="5.56081">
        <ele>241.401978</ele>
        <time>2014-09-23T14:43:06Z</time>
      </trkpt>
      <trkpt lat="47.20662" lon="5.56116">
        <ele>239.500275</ele>
        <time>2014-09-23T14:43:26Z</time>
      </trkpt>
      <trkpt lat="47.20655" lon="5.56151">
        <ele>237.839996</ele>
        <time>2014-09-23T14:43:46Z</time>
      </trkpt>
      <trkpt lat="47.20644" lon="5.56182">
        <ele>236.399994</ele>
        <time>2014-09-23T14:44:06Z</time>
      </trkpt>
      <trkpt lat="47.20628" lon="5.56208">
        <ele>234.228745</ele>
        <time>2014-09-23T14:44:26Z</time>
      </trkpt>
      <trkpt lat="47.2062" lon="5.56237">
        <ele>232.619644</ele>
        <time>2014-09-23T14:44:46Z</time>
      </trkpt>
      <trkpt lat="47.20623" lon="5.56273">
        <ele>232.106064</ele>
        <time>2014-09-23T14:45:06Z</time>
      </trkpt>
      <trkpt lat="47.20625" lon="5.56311">
        <ele>230.335464</ele>
        <time>2014-09-23T14:45:26Z</time>
      </trkpt>
      <trkpt lat="47.20626" lon="5.56345">
        <ele>228.866257</ele>
        <time>2014-09-23T14:45:46Z</time>
      </trkpt>
      <trkpt lat="47.20627" lon="5.56381">
        <ele>227.52626</ele>
        <time>2014-09-23T14:46:06Z</time>
      </trkpt>
      <trkpt lat="47.20632" lon="5.56411">
        <ele>225.921249</ele>
        <time>2014-09-23T14:46:26Z</time>
      </trkpt>
      <trkpt lat="47.20643" lon="5.56437">
        <ele>225.028748</ele>
        <time>2014-09-23T14:46:46Z</time>
      </trkpt>
      <trkpt lat="47.20659" lon="5.56458">
        <ele>225.475006</ele>
        <time>2014-09-23T14:47:06Z</time>
      </trkpt>
      <trkpt lat="47.20674" lon="5.56479">
        <ele>224.684875</ele>
        <time>2014-09-23T14:47:26Z</time>
      </trkpt>
      <trkpt lat="47.20693" lon="5.56508">
        <ele>222.630661</ele>
        <time>2014-09-23T14:47:46Z</time>
      </trkpt>
      <trkpt lat="47.20705" lon="5.5654">
        <ele>220.055496</ele>
        <time>2014-09-23T14:48:06Z</time>
      </trkpt>
      <trkpt lat="47.20711" lon="5.56578">
        <ele>217.58638</ele>
        <time>2014-09-23T14:48:26Z</time>
      </trkpt>
      <trkpt lat="47.20712" lon="5.56602">
        <ele>216.045105</ele>
        <time>2014-09-23T14:48:46Z</time>
      </trkpt>
      <trkpt lat="47.20707" lon="5.56626">
        <ele>215.529495</ele>
        <time>2014-09-23T14:49:06Z</time>
      </trkpt>
      <trkpt lat="47.207" lon="5.56646">
        <ele>215.304916</ele>
        <time>2014-09-23T14:49:26Z</time>
      </trkpt>
      <trkpt lat="47.20699" lon="5.56657">
        <ele>215.181</ele>
        <time>2014-09-23T14:49:46Z</time>
      </trkpt>
      <trkpt lat="47.20699" lon="5.56657">
        <ele>215.181</ele>
        <time>2014-09-23T14:50:06Z</time>
      </trkpt>
      <trkpt lat="47.20699" lon="5.56657">
        <ele>215.190399</ele>
        <time>2014-09-23T14:50:26Z</time>
      </trkpt>
      <trkpt lat="47.20706" lon="5.56665">
        <ele>215.555756</ele>
        <time>2014-09-23T14:50:46Z</time>
      </trkpt>
      <trkpt lat="47.2072" lon="5.56681">
        <ele>216.538895</ele>
        <time>2014-09-23T14:51:06Z</time>
      </trkpt>
      <trkpt lat="47.2076" lon="5.56728">
        <ele>215.298416</ele>
        <time>2014-09-23T14:51:46Z</time>
      </trkpt>
      <trkpt lat="47.20771" lon="5.56745">
        <ele>214.830002</ele>
        <time>2014-09-23T14:52:06Z</time>
      </trkpt>
      <trkpt lat="47.20791" lon="5.56767">
        <ele>213.983459</ele>
        <time>2014-09-23T14:52:26Z</time>
      </trkpt>
      <trkpt lat="47.20812" lon="5.56793">
        <ele>213.954498</ele>
        <time>2014-09-23T14:52:46Z</time>
      </trkpt>
      <trkpt lat="47.20817" lon="5.56824">
        <ele>218.574295</ele>
        <time>2014-09-23T14:53:06Z</time>
      </trkpt>
      <trkpt lat="47.20811" lon="5.56842">
        <ele>221.901245</ele>
        <time>2014-09-23T14:53:26Z</time>
      </trkpt>
      <trkpt lat="47.20807" lon="5.56846">
        <ele>222.583298</ele>
        <time>2014-09-23T14:53:46Z</time>
      </trkpt>
      <trkpt lat="47.20806" lon="5.56847">
        <ele>222.724564</ele>
        <time>2014-09-23T14:54:06Z</time>
      </trkpt>
      <trkpt lat="47.20806" lon="5.56847">
        <ele>222.724564</ele>
        <time>2014-09-23T14:54:26Z</time>
      </trkpt>
      <trkpt lat="47.20807" lon="5.56848">
        <ele>222.87291</ele>
        <time>2014-09-23T14:54:46Z</time>
      </trkpt>
      <trkpt lat="47.20807" lon="5.56848">
        <ele>222.87291</ele>
        <time>2014-09-23T14:55:06Z</time>
      </trkpt>
      <trkpt lat="47.20807" lon="5.56849">
        <ele>223.050873</ele>
        <time>2014-09-23T14:55:26Z</time>
      </trkpt>
      <trkpt lat="47.208" lon="5.56857">
        <ele>224.253906</ele>
        <time>2014-09-23T14:55:46Z</time>
      </trkpt>
      <trkpt lat="47.20786" lon="5.5689">
        <ele>227.018707</ele>
        <time>2014-09-23T14:56:06Z</time>
      </trkpt>
      <trkpt lat="47.2079" lon="5.56922">
        <ele>230.20787</ele>
        <time>2014-09-23T14:56:26Z</time>
      </trkpt>
      <trkpt lat="47.20794" lon="5.56943">
        <ele>231.679993</ele>
        <time>2014-09-23T14:56:46Z</time>
      </trkpt>
      <trkpt lat="47.20805" lon="5.56958">
        <ele>233.720001</ele>
        <time>2014-09-23T14:57:06Z</time>
      </trkpt>
      <trkpt lat="47.20808" lon="5.56966">
        <ele>234.360001</ele>
        <time>2014-09-23T14:57:26Z</time>
      </trkpt>
      <trkpt lat="47.20808" lon="5.56966">
        <ele>234.360001</ele>
        <time>2014-09-23T14:57:46Z</time>
      </trkpt>
      <trkpt lat="47.20807" lon="5.56967">
        <ele>234.199997</ele>
        <time>2014-09-23T14:58:06Z</time>
      </trkpt>
      <trkpt lat="47.20806" lon="5.5697">
        <ele>234</ele>
        <time>2014-09-23T14:58:26Z</time>
      </trkpt>
      <trkpt lat="47.20784" lon="5.57033">
        <ele>234.642502</ele>
        <time>2014-09-23T14:59:06Z</time>
      </trkpt>
      <trkpt lat="47.20785" lon="5.5706">
        <ele>237.660187</ele>
        <time>2014-09-23T14:59:26Z</time>
      </trkpt>
      <trkpt lat="47.2078" lon="5.57082">
        <ele>239.815002</ele>
        <time>2014-09-23T14:59:46Z</time>
      </trkpt>
      <trkpt lat="47.20778" lon="5.57101">
        <ele>241.527496</ele>
        <time>2014-09-23T15:00:06Z</time>
      </trkpt>
      <trkpt lat="47.20784" lon="5.57127">
        <ele>243.551056</ele>
        <time>2014-09-23T15:00:26Z</time>
      </trkpt>
      <trkpt lat="47.20786" lon="5.57152">
        <ele>245.106247</ele>
        <time>2014-09-23T15:00:46Z</time>
      </trkpt>
      <trkpt lat="47.20784" lon="5.57176">
        <ele>247.088745</ele>
        <time>2014-09-23T15:01:06Z</time>
      </trkpt>
      <trkpt lat="47.20782" lon="5.57194">
        <ele>248.680893</ele>
        <time>2014-09-23T15:01:26Z</time>
      </trkpt>
      <trkpt lat="47.20782" lon="5.57222">
        <ele>250.312195</ele>
        <time>2014-09-23T15:01:46Z</time>
      </trkpt>
      <trkpt lat="47.20788" lon="5.5724">
        <ele>250.9095</ele>
        <time>2014-09-23T15:02:06Z</time>
      </trkpt>
      <trkpt lat="47.20798" lon="5.57261">
        <ele>251.574997</ele>
        <time>2014-09-23T15:02:26Z</time>
      </trkpt>
      <trkpt lat="47.20801" lon="5.57286">
        <ele>253.592499</ele>
        <time>2014-09-23T15:02:46Z</time>
      </trkpt>
      <trkpt lat="47.20801" lon="5.57301">
        <ele>254.934998</ele>
        <time>2014-09-23T15:03:06Z</time>
      </trkpt>
      <trkpt lat="47.20801" lon="5.57301">
        <ele>254.934998</ele>
        <time>2014-09-23T15:03:26Z</time>
      </trkpt>
      <trkpt lat="47.20797" lon="5.57316">
        <ele>256.524994</ele>
        <time>2014-09-23T15:03:46Z</time>
      </trkpt>
      <trkpt lat="47.20787" lon="5.57339">
        <ele>259.604767</ele>
        <time>2014-09-23T15:04:06Z</time>
      </trkpt>
      <trkpt lat="47.20775" lon="5.57359">
        <ele>262.90683</ele>
        <time>2014-09-23T15:04:26Z</time>
      </trkpt>
      <trkpt lat="47.20765" lon="5.57379">
        <ele>265.211334</ele>
        <time>2014-09-23T15:04:46Z</time>
      </trkpt>
      <trkpt lat="47.2076" lon="5.57394">
        <ele>266.50766</ele>
        <time>2014-09-23T15:05:06Z</time>
      </trkpt>
      <trkpt lat="47.20758" lon="5.57423">
        <ele>269.103699</ele>
        <time>2014-09-23T15:05:26Z</time>
      </trkpt>
      <trkpt lat="47.20761" lon="5.57445">
        <ele>271.637604</ele>
        <time>2014-09-23T15:05:46Z</time>
      </trkpt>
      <trkpt lat="47.20766" lon="5.57472">
        <ele>274.798615</ele>
        <time>2014-09-23T15:06:06Z</time>
      </trkpt>
      <trkpt lat="47.20769" lon="5.57496">
        <ele>277.530914</ele>
        <time>2014-09-23T15:06:26Z</time>
      </trkpt>
      <trkpt lat="47.20773" lon="5.57519">
        <ele>279.383331</ele>
        <time>2014-09-23T15:06:46Z</time>
      </trkpt>
      <trkpt lat="47.20772" lon="5.57546">
        <ele>281.645508</ele>
        <time>2014-09-23T15:07:06Z</time>
      </trkpt>
      <trkpt lat="47.2077" lon="5.57568">
        <ele>283.389618</ele>
        <time>2014-09-23T15:07:26Z</time>
      </trkpt>
      <trkpt lat="47.20767" lon="5.5759">
        <ele>285.154999</ele>
        <time>2014-09-23T15:07:46Z</time>
      </trkpt>
      <trkpt lat="47.2077" lon="5.57617">
        <ele>288.410004</ele>
        <time>2014-09-23T15:08:06Z</time>
      </trkpt>
      <trkpt lat="47.2077" lon="5.57642">
        <ele>291.5</ele>
        <time>2014-09-23T15:08:26Z</time>
      </trkpt>
      <trkpt lat="47.20772" lon="5.57664">
        <ele>294.241669</ele>
        <time>2014-09-23T15:08:46Z</time>
      </trkpt>
      <trkpt lat="47.20779" lon="5.57678">
        <ele>296.180786</ele>
        <time>2014-09-23T15:09:06Z</time>
      </trkpt>
      <trkpt lat="47.20789" lon="5.57699">
        <ele>298.618622</ele>
        <time>2014-09-23T15:09:26Z</time>
      </trkpt>
      <trkpt lat="47.20795" lon="5.57728">
        <ele>301.606201</ele>
        <time>2014-09-23T15:09:46Z</time>
      </trkpt>
      <trkpt lat="47.20797" lon="5.57732">
        <ele>301.816925</ele>
        <time>2014-09-23T15:10:06Z</time>
      </trkpt>
      <trkpt lat="47.20798" lon="5.57766">
        <ele>303.902222</ele>
        <time>2014-09-23T15:10:26Z</time>
      </trkpt>
      <trkpt lat="47.20795" lon="5.57799">
        <ele>305.994354</ele>
        <time>2014-09-23T15:10:46Z</time>
      </trkpt>
      <trkpt lat="47.20788" lon="5.57831">
        <ele>307.878174</ele>
        <time>2014-09-23T15:11:06Z</time>
      </trkpt>
      <trkpt lat="47.20781" lon="5.57859">
        <ele>309.429993</ele>
        <time>2014-09-23T15:11:26Z</time>
      </trkpt>
      <trkpt lat="47.20774" lon="5.57882">
        <ele>309.52124</ele>
        <time>2014-09-23T15:11:46Z</time>
      </trkpt>
      <trkpt lat="47.20762" lon="5.579">
        <ele>310.02124</ele>
        <time>2014-09-23T15:12:06Z</time>
      </trkpt>
      <trkpt lat="47.20746" lon="5.57927">
        <ele>310.668915</ele>
        <time>2014-09-23T15:12:26Z</time>
      </trkpt>
      <trkpt lat="47.20735" lon="5.5795">
        <ele>310.612488</ele>
        <time>2014-09-23T15:12:46Z</time>
      </trkpt>
      <trkpt lat="47.20723" lon="5.5797">
        <ele>311.025818</ele>
        <time>2014-09-23T15:13:06Z</time>
      </trkpt>
      <trkpt lat="47.20712" lon="5.57991">
        <ele>311.181244</ele>
        <time>2014-09-23T15:13:26Z</time>
      </trkpt>
      <trkpt lat="47.20702" lon="5.58012">
        <ele>310.644989</ele>
        <time>2014-09-23T15:13:46Z</time>
      </trkpt>
      <trkpt lat="47.20693" lon="5.58046">
        <ele>309.109985</ele>
        <time>2014-09-23T15:14:06Z</time>
      </trkpt>
      <trkpt lat="47.20684" lon="5.58075">
        <ele>306.9823</ele>
        <time>2014-09-23T15:14:26Z</time>
      </trkpt>
      <trkpt lat="47.20674" lon="5.58102">
        <ele>305.486603</ele>
        <time>2014-09-23T15:14:46Z</time>
      </trkpt>
      <trkpt lat="47.20663" lon="5.5813">
        <ele>304.577637</ele>
        <time>2014-09-23T15:15:06Z</time>
      </trkpt>
      <trkpt lat="47.20655" lon="5.58158">
        <ele>303.412018</ele>
        <time>2014-09-23T15:15:26Z</time>
      </trkpt>
      <trkpt lat="47.20646" lon="5.58187">
        <ele>302.173859</ele>
        <time>2014-09-23T15:15:46Z</time>
      </trkpt>
      <trkpt lat="47.20632" lon="5.58216">
        <ele>301.411133</ele>
        <time>2014-09-23T15:16:06Z</time>
      </trkpt>
      <trkpt lat="47.20618" lon="5.5824">
        <ele>301.470123</ele>
        <time>2014-09-23T15:16:26Z</time>
      </trkpt>
      <trkpt lat="47.20602" lon="5.58253">
        <ele>300.881165</ele>
        <time>2014-09-23T15:16:46Z</time>
      </trkpt>
      <trkpt lat="47.20582" lon="5.58273">
        <ele>300.539703</ele>
        <time>2014-09-23T15:17:06Z</time>
      </trkpt>
      <trkpt lat="47.20563" lon="5.58286">
        <ele>301.829803</ele>
        <time>2014-09-23T15:17:26Z</time>
      </trkpt>
      <trkpt lat="47.20548" lon="5.58311">
        <ele>303.362305</ele>
        <time>2014-09-23T15:17:46Z</time>
      </trkpt>
      <trkpt lat="47.20541" lon="5.58335">
        <ele>304.471313</ele>
        <time>2014-09-23T15:18:06Z</time>
      </trkpt>
      <trkpt lat="47.20537" lon="5.58369">
        <ele>305.519012</ele>
        <time>2014-09-23T15:18:26Z</time>
      </trkpt>
      <trkpt lat="47.20539" lon="5.58399">
        <ele>308.184387</ele>
        <time>2014-09-23T15:18:46Z</time>
      </trkpt>
      <trkpt lat="47.20539" lon="5.58425">
        <ele>310.783478</ele>
        <time>2014-09-23T15:19:06Z</time>
      </trkpt>
      <trkpt lat="47.20538" lon="5.58448">
        <ele>312.962708</ele>
        <time>2014-09-23T15:19:26Z</time>
      </trkpt>
      <trkpt lat="47.20536" lon="5.58472">
        <ele>315.185791</ele>
        <time>2014-09-23T15:19:46Z</time>
      </trkpt>
      <trkpt lat="47.20534" lon="5.58486">
        <ele>316.634918</ele>
        <time>2014-09-23T15:20:06Z</time>
      </trkpt>
      <trkpt lat="47.20531" lon="5.58511">
        <ele>319.179993</ele>
        <time>2014-09-23T15:20:26Z</time>
      </trkpt>
      <trkpt lat="47.20532" lon="5.58536">
        <ele>321.257507</ele>
        <time>2014-09-23T15:20:46Z</time>
      </trkpt>
      <trkpt lat="47.20534" lon="5.58558">
        <ele>322.725006</ele>
        <time>2014-09-23T15:21:06Z</time>
      </trkpt>
      <trkpt lat="47.20533" lon="5.58577">
        <ele>324.342621</ele>
        <time>2014-09-23T15:21:26Z</time>
      </trkpt>
      <trkpt lat="47.20531" lon="5.58611">
        <ele>326.78302</ele>
        <time>2014-09-23T15:21:46Z</time>
      </trkpt>
      <trkpt lat="47.20529" lon="5.5864">
        <ele>328.640625</ele>
        <time>2014-09-23T15:22:06Z</time>
      </trkpt>
      <trkpt lat="47.20514" lon="5.58663">
        <ele>331.473419</ele>
        <time>2014-09-23T15:22:26Z</time>
      </trkpt>
      <trkpt lat="47.20502" lon="5.58675">
        <ele>332.725494</ele>
        <time>2014-09-23T15:22:47Z</time>
      </trkpt>
      <trkpt lat="47.20494" lon="5.58681">
        <ele>333.272797</ele>
        <time>2014-09-23T15:23:07Z</time>
      </trkpt>
      <trkpt lat="47.20492" lon="5.58682">
        <ele>333.36499</ele>
        <time>2014-09-23T15:23:27Z</time>
      </trkpt>
      <trkpt lat="47.20491" lon="5.58682">
        <ele>333.445007</ele>
        <time>2014-09-23T15:23:47Z</time>
      </trkpt>
      <trkpt lat="47.20489" lon="5.58683">
        <ele>333.599548</ele>
        <time>2014-09-23T15:24:07Z</time>
      </trkpt>
      <trkpt lat="47.20489" lon="5.58683">
        <ele>333.599548</ele>
        <time>2014-09-23T15:24:27Z</time>
      </trkpt>
      <trkpt lat="47.20489" lon="5.58683">
        <ele>333.594818</ele>
        <time>2014-09-23T15:24:47Z</time>
      </trkpt>
      <trkpt lat="47.20489" lon="5.58683">
        <ele>333.594818</ele>
        <time>2014-09-23T15:25:07Z</time>
      </trkpt>
      <trkpt lat="47.20489" lon="5.58683">
        <ele>333.616394</ele>
        <time>2014-09-23T15:25:27Z</time>
      </trkpt>
      <trkpt lat="47.20489" lon="5.58683">
        <ele>333.616394</ele>
        <time>2014-09-23T15:25:47Z</time>
      </trkpt>
      <trkpt lat="47.20488" lon="5.58684">
        <ele>333.670013</ele>
        <time>2014-09-23T15:26:07Z</time>
      </trkpt>
      <trkpt lat="47.20487" lon="5.58683">
        <ele>333.767944</ele>
        <time>2014-09-23T15:26:27Z</time>
      </trkpt>
      <trkpt lat="47.20487" lon="5.58683">
        <ele>333.767944</ele>
        <time>2014-09-23T15:26:47Z</time>
      </trkpt>
      <trkpt lat="47.20487" lon="5.58683">
        <ele>333.769257</ele>
        <time>2014-09-23T15:27:07Z</time>
      </trkpt>
      <trkpt lat="47.20486" lon="5.58683">
        <ele>333.79892</ele>
        <time>2014-09-23T15:27:27Z</time>
      </trkpt>
      <trkpt lat="47.20486" lon="5.58683">
        <ele>333.79892</ele>
        <time>2014-09-23T15:27:47Z</time>
      </trkpt>
      <trkpt lat="47.20487" lon="5.58683">
        <ele>333.776825</ele>
        <time>2014-09-23T15:28:07Z</time>
      </trkpt>
      <trkpt lat="47.20487" lon="5.58683">
        <ele>333.776825</ele>
        <time>2014-09-23T15:28:27Z</time>
      </trkpt>
      <trkpt lat="47.20487" lon="5.58684">
        <ele>333.717529</ele>
        <time>2014-09-23T15:28:47Z</time>
      </trkpt>
      <trkpt lat="47.20487" lon="5.58684">
        <ele>333.717529</ele>
        <time>2014-09-23T15:29:07Z</time>
      </trkpt>
      <trkpt lat="47.20479" lon="5.58686">
        <ele>334.23996</ele>
        <time>2014-09-23T15:29:27Z</time>
      </trkpt>
      <trkpt lat="47.20452" lon="5.58692">
        <ele>335.028625</ele>
        <time>2014-09-23T15:29:47Z</time>
      </trkpt>
      <trkpt lat="47.20432" lon="5.58698">
        <ele>334.042175</ele>
        <time>2014-09-23T15:30:07Z</time>
      </trkpt>
      <trkpt lat="47.20408" lon="5.58701">
        <ele>333.776825</ele>
        <time>2014-09-23T15:30:27Z</time>
      </trkpt>
      <trkpt lat="47.20391" lon="5.5871">
        <ele>333.668518</ele>
        <time>2014-09-23T15:30:47Z</time>
      </trkpt>
      <trkpt lat="47.20388" lon="5.58713">
        <ele>333.695892</ele>
        <time>2014-09-23T15:31:07Z</time>
      </trkpt>
      <trkpt lat="47.20378" lon="5.58717">
        <ele>334.297058</ele>
        <time>2014-09-23T15:31:27Z</time>
      </trkpt>
      <trkpt lat="47.20367" lon="5.5873">
        <ele>335.998688</ele>
        <time>2014-09-23T15:31:47Z</time>
      </trkpt>
      <trkpt lat="47.20353" lon="5.58764">
        <ele>339.421234</ele>
        <time>2014-09-23T15:32:07Z</time>
      </trkpt>
      <trkpt lat="47.2035" lon="5.58788">
        <ele>340.980591</ele>
        <time>2014-09-23T15:32:27Z</time>
      </trkpt>
      <trkpt lat="47.20348" lon="5.58821">
        <ele>342.831207</ele>
        <time>2014-09-23T15:32:47Z</time>
      </trkpt>
      <trkpt lat="47.20347" lon="5.5884">
        <ele>344.032837</ele>
        <time>2014-09-23T15:33:07Z</time>
      </trkpt>
      <trkpt lat="47.20344" lon="5.5887">
        <ele>346.383362</ele>
        <time>2014-09-23T15:33:27Z</time>
      </trkpt>
      <trkpt lat="47.2035" lon="5.58902">
        <ele>346.672485</ele>
        <time>2014-09-23T15:33:47Z</time>
      </trkpt>
      <trkpt lat="47.20348" lon="5.58926">
        <ele>349.097504</ele>
        <time>2014-09-23T15:34:07Z</time>
      </trkpt>
      <trkpt lat="47.20349" lon="5.58951">
        <ele>350.991821</ele>
        <time>2014-09-23T15:34:27Z</time>
      </trkpt>
      <trkpt lat="47.20346" lon="5.58979">
        <ele>353.787567</ele>
        <time>2014-09-23T15:34:47Z</time>
      </trkpt>
      <trkpt lat="47.20338" lon="5.59003">
        <ele>358.056732</ele>
        <time>2014-09-23T15:35:07Z</time>
      </trkpt>
      <trkpt lat="47.20331" lon="5.59022">
        <ele>361.238068</ele>
        <time>2014-09-23T15:35:27Z</time>
      </trkpt>
      <trkpt lat="47.2032" lon="5.59043">
        <ele>365.190002</ele>
        <time>2014-09-23T15:35:47Z</time>
      </trkpt>
      <trkpt lat="47.20316" lon="5.59056">
        <ele>366.336243</ele>
        <time>2014-09-23T15:36:07Z</time>
      </trkpt>
      <trkpt lat="47.20312" lon="5.59071">
        <ele>367.401245</ele>
        <time>2014-09-23T15:36:27Z</time>
      </trkpt>
      <trkpt lat="47.20308" lon="5.59097">
        <ele>369.163513</ele>
        <time>2014-09-23T15:36:47Z</time>
      </trkpt>
      <trkpt lat="47.20306" lon="5.59111">
        <ele>370.083832</ele>
        <time>2014-09-23T15:37:07Z</time>
      </trkpt>
      <trkpt lat="47.20307" lon="5.59133">
        <ele>371.210236</ele>
        <time>2014-09-23T15:37:27Z</time>
      </trkpt>
      <trkpt lat="47.20308" lon="5.59148">
        <ele>371.932343</ele>
        <time>2014-09-23T15:37:47Z</time>
      </trkpt>
      <trkpt lat="47.20307" lon="5.59148">
        <ele>371.964508</ele>
        <time>2014-09-23T15:38:07Z</time>
      </trkpt>
      <trkpt lat="47.20302" lon="5.59167">
        <ele>373.33075</ele>
        <time>2014-09-23T15:38:27Z</time>
      </trkpt>
      <trkpt lat="47.20302" lon="5.5918">
        <ele>373.969055</ele>
        <time>2014-09-23T15:38:47Z</time>
      </trkpt>
      <trkpt lat="47.203" lon="5.59208">
        <ele>375.511749</ele>
        <time>2014-09-23T15:39:07Z</time>
      </trkpt>
      <trkpt lat="47.20293" lon="5.59239">
        <ele>378.25885</ele>
        <time>2014-09-23T15:39:27Z</time>
      </trkpt>
      <trkpt lat="47.20287" lon="5.59271">
        <ele>380.987488</ele>
        <time>2014-09-23T15:39:47Z</time>
      </trkpt>
      <trkpt lat="47.20284" lon="5.59294">
        <ele>382.388733</ele>
        <time>2014-09-23T15:40:07Z</time>
      </trkpt>
      <trkpt lat="47.20282" lon="5.59327">
        <ele>383.897491</ele>
        <time>2014-09-23T15:40:27Z</time>
      </trkpt>
      <trkpt lat="47.20284" lon="5.59355">
        <ele>384.920288</ele>
        <time>2014-09-23T15:40:47Z</time>
      </trkpt>
      <trkpt lat="47.20278" lon="5.59385">
        <ele>386.381104</ele>
        <time>2014-09-23T15:41:07Z</time>
      </trkpt>
      <trkpt lat="47.20275" lon="5.59418">
        <ele>387.463287</ele>
        <time>2014-09-23T15:41:27Z</time>
      </trkpt>
      <trkpt lat="47.20274" lon="5.59446">
        <ele>387.998962</ele>
        <time>2014-09-23T15:41:47Z</time>
      </trkpt>
      <trkpt lat="47.2028" lon="5.59481">
        <ele>388.291443</ele>
        <time>2014-09-23T15:42:07Z</time>
      </trkpt>
      <trkpt lat="47.20284" lon="5.59516">
        <ele>388.325256</ele>
        <time>2014-09-23T15:42:27Z</time>
      </trkpt>
      <trkpt lat="47.20287" lon="5.59546">
        <ele>388.302704</ele>
        <time>2014-09-23T15:42:47Z</time>
      </trkpt>
      <trkpt lat="47.20293" lon="5.59579">
        <ele>387.399261</ele>
        <time>2014-09-23T15:43:07Z</time>
      </trkpt>
      <trkpt lat="47.20302" lon="5.59607">
        <ele>386.981628</ele>
        <time>2014-09-23T15:43:27Z</time>
      </trkpt>
      <trkpt lat="47.20302" lon="5.59607">
        <ele>386.981628</ele>
        <time>2014-09-23T15:43:47Z</time>
      </trkpt>
      <trkpt lat="47.20302" lon="5.59608">
        <ele>386.958862</ele>
        <time>2014-09-23T15:44:07Z</time>
      </trkpt>
      <trkpt lat="47.20302" lon="5.59605">
        <ele>387.006378</ele>
        <time>2014-09-23T15:44:27Z</time>
      </trkpt>
      <trkpt lat="47.20303" lon="5.59602">
        <ele>387.079987</ele>
        <time>2014-09-23T15:44:47Z</time>
      </trkpt>
      <trkpt lat="47.20303" lon="5.59602">
        <ele>387.079987</ele>
        <time>2014-09-23T15:45:07Z</time>
      </trkpt>
      <trkpt lat="47.20304" lon="5.59603">
        <ele>387.063202</ele>
        <time>2014-09-23T15:45:27Z</time>
      </trkpt>
      <trkpt lat="47.20308" lon="5.59675">
        <ele>385.865631</ele>
        <time>2014-09-23T15:46:07Z</time>
      </trkpt>
      <trkpt lat="47.20309" lon="5.59711">
        <ele>384.830322</ele>
        <time>2014-09-23T15:46:27Z</time>
      </trkpt>
      <trkpt lat="47.20318" lon="5.59751">
        <ele>383.824615</ele>
        <time>2014-09-23T15:46:47Z</time>
      </trkpt>
      <trkpt lat="47.20319" lon="5.59778">
        <ele>383.377075</ele>
        <time>2014-09-23T15:47:07Z</time>
      </trkpt>
      <trkpt lat="47.20326" lon="5.5982">
        <ele>383.046265</ele>
        <time>2014-09-23T15:47:27Z</time>
      </trkpt>
      <trkpt lat="47.2033" lon="5.59852">
        <ele>382.783752</ele>
        <time>2014-09-23T15:47:47Z</time>
      </trkpt>
      <trkpt lat="47.20325" lon="5.59893">
        <ele>382.290009</ele>
        <time>2014-09-23T15:48:07Z</time>
      </trkpt>
      <trkpt lat="47.20319" lon="5.59934">
        <ele>382.059998</ele>
        <time>2014-09-23T15:48:27Z</time>
      </trkpt>
      <trkpt lat="47.20315" lon="5.59974">
        <ele>381.950012</ele>
        <time>2014-09-23T15:48:47Z</time>
      </trkpt>
      <trkpt lat="47.20314" lon="5.60011">
        <ele>382.023743</ele>
        <time>2014-09-23T15:49:07Z</time>
      </trkpt>
      <trkpt lat="47.20309" lon="5.60045">
        <ele>382.378754</ele>
        <time>2014-09-23T15:49:27Z</time>
      </trkpt>
      <trkpt lat="47.20305" lon="5.60075">
        <ele>382.753387</ele>
        <time>2014-09-23T15:49:47Z</time>
      </trkpt>
      <trkpt lat="47.20296" lon="5.60158">
        <ele>385.054047</ele>
        <time>2014-09-23T15:50:27Z</time>
      </trkpt>
      <trkpt lat="47.20294" lon="5.602">
        <ele>385.143799</ele>
        <time>2014-09-23T15:50:47Z</time>
      </trkpt>
      <trkpt lat="47.2029" lon="5.60234">
        <ele>385.554993</ele>
        <time>2014-09-23T15:51:07Z</time>
      </trkpt>
      <trkpt lat="47.20285" lon="5.60263">
        <ele>385.862213</ele>
        <time>2014-09-23T15:51:27Z</time>
      </trkpt>
      <trkpt lat="47.20275" lon="5.60296">
        <ele>385.778748</ele>
        <time>2014-09-23T15:51:47Z</time>
      </trkpt>
      <trkpt lat="47.2026" lon="5.60323">
        <ele>385.25</ele>
        <time>2014-09-23T15:52:07Z</time>
      </trkpt>
      <trkpt lat="47.2025" lon="5.60347">
        <ele>384.282349</ele>
        <time>2014-09-23T15:52:27Z</time>
      </trkpt>
      <trkpt lat="47.20242" lon="5.60376">
        <ele>382.459167</ele>
        <time>2014-09-23T15:52:47Z</time>
      </trkpt>
      <trkpt lat="47.20238" lon="5.60403">
        <ele>380.659363</ele>
        <time>2014-09-23T15:53:07Z</time>
      </trkpt>
      <trkpt lat="47.20231" lon="5.60429">
        <ele>377.707367</ele>
        <time>2014-09-23T15:53:27Z</time>
      </trkpt>
      <trkpt lat="47.2023" lon="5.60453">
        <ele>375.782898</ele>
        <time>2014-09-23T15:53:47Z</time>
      </trkpt>
      <trkpt lat="47.2023" lon="5.60468">
        <ele>374.469788</ele>
        <time>2014-09-23T15:54:07Z</time>
      </trkpt>
      <trkpt lat="47.20225" lon="5.60493">
        <ele>370.595001</ele>
        <time>2014-09-23T15:54:27Z</time>
      </trkpt>
      <trkpt lat="47.20227" lon="5.60521">
        <ele>368.354523</ele>
        <time>2014-09-23T15:54:47Z</time>
      </trkpt>
      <trkpt lat="47.20235" lon="5.60539">
        <ele>367.256409</ele>
        <time>2014-09-23T15:55:07Z</time>
      </trkpt>
      <trkpt lat="47.20248" lon="5.60563">
        <ele>366.049988</ele>
        <time>2014-09-23T15:55:27Z</time>
      </trkpt>
      <trkpt lat="47.20277" lon="5.60625">
        <ele>367.686005</ele>
        <time>2014-09-23T15:56:07Z</time>
      </trkpt>
      <trkpt lat="47.20281" lon="5.60658">
        <ele>364.910248</ele>
        <time>2014-09-23T15:56:27Z</time>
      </trkpt>
      <trkpt lat="47.2028" lon="5.60679">
        <ele>360.982758</ele>
        <time>2014-09-23T15:56:47Z</time>
      </trkpt>
      <trkpt lat="47.20281" lon="5.60716">
        <ele>354.820679</ele>
        <time>2014-09-23T15:57:07Z</time>
      </trkpt>
      <trkpt lat="47.20284" lon="5.60744">
        <ele>352.373199</ele>
        <time>2014-09-23T15:57:27Z</time>
      </trkpt>
      <trkpt lat="47.2029" lon="5.6078">
        <ele>351.069855</ele>
        <time>2014-09-23T15:57:47Z</time>
      </trkpt>
      <trkpt lat="47.20289" lon="5.60815">
        <ele>347.518433</ele>
        <time>2014-09-23T15:58:07Z</time>
      </trkpt>
      <trkpt lat="47.2029" lon="5.60847">
        <ele>344.886932</ele>
        <time>2014-09-23T15:58:27Z</time>
      </trkpt>
      <trkpt lat="47.20292" lon="5.60876">
        <ele>342.253387</ele>
        <time>2014-09-23T15:58:47Z</time>
      </trkpt>
      <trkpt lat="47.20294" lon="5.60909">
        <ele>338.385986</ele>
        <time>2014-09-23T15:59:07Z</time>
      </trkpt>
      <trkpt lat="47.20294" lon="5.60947">
        <ele>332.00235</ele>
        <time>2014-09-23T15:59:27Z</time>
      </trkpt>
      <trkpt lat="47.203" lon="5.60977">
        <ele>327.354218</ele>
        <time>2014-09-23T15:59:47Z</time>
      </trkpt>
      <trkpt lat="47.2031" lon="5.61013">
        <ele>323.092194</ele>
        <time>2014-09-23T16:00:07Z</time>
      </trkpt>
      <trkpt lat="47.20315" lon="5.61031">
        <ele>321.804871</ele>
        <time>2014-09-23T16:00:27Z</time>
      </trkpt>
      <trkpt lat="47.2032" lon="5.61055">
        <ele>319.095306</ele>
        <time>2014-09-23T16:00:47Z</time>
      </trkpt>
      <trkpt lat="47.2033" lon="5.61085">
        <ele>316.035522</ele>
        <time>2014-09-23T16:01:07Z</time>
      </trkpt>
      <trkpt lat="47.20345" lon="5.61121">
        <ele>312.711548</ele>
        <time>2014-09-23T16:01:27Z</time>
      </trkpt>
      <trkpt lat="47.20359" lon="5.61157">
        <ele>309.254517</ele>
        <time>2014-09-23T16:01:47Z</time>
      </trkpt>
      <trkpt lat="47.20375" lon="5.61185">
        <ele>307.190094</ele>
        <time>2014-09-23T16:02:07Z</time>
      </trkpt>
      <trkpt lat="47.20386" lon="5.6121">
        <ele>304.921082</ele>
        <time>2014-09-23T16:02:27Z</time>
      </trkpt>
      <trkpt lat="47.20395" lon="5.61228">
        <ele>303.501282</ele>
        <time>2014-09-23T16:02:47Z</time>
      </trkpt>
      <trkpt lat="47.20398" lon="5.61242">
        <ele>301.752747</ele>
        <time>2014-09-23T16:03:07Z</time>
      </trkpt>
      <trkpt lat="47.20404" lon="5.61267">
        <ele>298.480957</ele>
        <time>2014-09-23T16:03:27Z</time>
      </trkpt>
      <trkpt lat="47.20409" lon="5.61296">
        <ele>295.134766</ele>
        <time>2014-09-23T16:03:47Z</time>
      </trkpt>
      <trkpt lat="47.20402" lon="5.61326">
        <ele>290.084808</ele>
        <time>2014-09-23T16:04:07Z</time>
      </trkpt>
      <trkpt lat="47.20402" lon="5.61356">
        <ele>286.917053</ele>
        <time>2014-09-23T16:04:27Z</time>
      </trkpt>
      <trkpt lat="47.20392" lon="5.61374">
        <ele>284.386475</ele>
        <time>2014-09-23T16:04:47Z</time>
      </trkpt>
      <trkpt lat="47.20391" lon="5.61412">
        <ele>281.247864</ele>
        <time>2014-09-23T16:05:07Z</time>
      </trkpt>
      <trkpt lat="47.20402" lon="5.61445">
        <ele>279.72644</ele>
        <time>2014-09-23T16:05:27Z</time>
      </trkpt>
      <trkpt lat="47.20409" lon="5.61467">
        <ele>278.247498</ele>
        <time>2014-09-23T16:05:47Z</time>
      </trkpt>
      <trkpt lat="47.20408" lon="5.61504">
        <ele>274.907501</ele>
        <time>2014-09-23T16:06:07Z</time>
      </trkpt>
      <trkpt lat="47.2041" lon="5.61542">
        <ele>272.028351</ele>
        <time>2014-09-23T16:06:27Z</time>
      </trkpt>
      <trkpt lat="47.20422" lon="5.61573">
        <ele>270.500488</ele>
        <time>2014-09-23T16:06:47Z</time>
      </trkpt>
      <trkpt lat="47.20435" lon="5.61602">
        <ele>269.046967</ele>
        <time>2014-09-23T16:07:07Z</time>
      </trkpt>
      <trkpt lat="47.20448" lon="5.61629">
        <ele>269.234283</ele>
        <time>2014-09-23T16:07:27Z</time>
      </trkpt>
      <trkpt lat="47.20463" lon="5.61653">
        <ele>269.152954</ele>
        <time>2014-09-23T16:07:47Z</time>
      </trkpt>
      <trkpt lat="47.20467" lon="5.61682">
        <ele>269.311249</ele>
        <time>2014-09-23T16:08:07Z</time>
      </trkpt>
      <trkpt lat="47.20465" lon="5.61699">
        <ele>269.60376</ele>
        <time>2014-09-23T16:08:27Z</time>
      </trkpt>
      <trkpt lat="47.20467" lon="5.61703">
        <ele>269.607513</ele>
        <time>2014-09-23T16:08:47Z</time>
      </trkpt>
      <trkpt lat="47.20467" lon="5.61703">
        <ele>269.607513</ele>
        <time>2014-09-23T16:09:07Z</time>
      </trkpt>
      <trkpt lat="47.20467" lon="5.61703">
        <ele>269.607513</ele>
        <time>2014-09-23T16:09:27Z</time>
      </trkpt>
      <trkpt lat="47.20467" lon="5.61703">
        <ele>269.607513</ele>
        <time>2014-09-23T16:09:47Z</time>
      </trkpt>
      <trkpt lat="47.20468" lon="5.61703">
        <ele>269.597504</ele>
        <time>2014-09-23T16:10:07Z</time>
      </trkpt>
      <trkpt lat="47.20468" lon="5.61703">
        <ele>269.597504</ele>
        <time>2014-09-23T16:10:27Z</time>
      </trkpt>
      <trkpt lat="47.20468" lon="5.61703">
        <ele>269.600006</ele>
        <time>2014-09-23T16:10:41Z</time>
      </trkpt>
    </trkseg>
  </trk>
</gpx>